<?xml version="1.0" encoding="UTF-8" standalone="no" ?>
<gpx xmlns="http://www.topografix.com/GPX/1/1" xmlns:xsi="http://www.w3.org/2001/XMLSchema-instance" xsi:schemaLocation="http://www.topografix.com/GPX/1/1 http://www.topografix.com/GPX/1/1/gpx.xsd" version="1.1" creator="VisuGPX - https://www.visugpx.com">
  <metadata>
    <name>Reco Geneste</name>
    <desc><![CDATA[14 mai 2021 à 10:32:48

]]></desc>
  </metadata>
  <trk>
    <name><![CDATA[Reco Geneste]]></name>
    <cmt><![CDATA[14 mai 2021 à 10:32:48]]></cmt>
    <trkseg>
      <trkpt lat="48.77518" lon="2.12496">
        <ele>107</ele>
        <time>2021-05-14T08:32:49Z</time>
      </trkpt>
      <trkpt lat="48.77524" lon="2.12494">
        <ele>107</ele>
        <time>2021-05-14T08:33:07Z</time>
      </trkpt>
      <trkpt lat="48.7753" lon="2.12489">
        <ele>107</ele>
        <time>2021-05-14T08:33:13Z</time>
      </trkpt>
      <trkpt lat="48.77535" lon="2.12481">
        <ele>107</ele>
        <time>2021-05-14T08:33:18Z</time>
      </trkpt>
      <trkpt lat="48.77535" lon="2.12472">
        <ele>107</ele>
        <time>2021-05-14T08:33:24Z</time>
      </trkpt>
      <trkpt lat="48.77535" lon="2.12463">
        <ele>107</ele>
        <time>2021-05-14T08:33:29Z</time>
      </trkpt>
      <trkpt lat="48.77532" lon="2.12454">
        <ele>107</ele>
        <time>2021-05-14T08:33:33Z</time>
      </trkpt>
      <trkpt lat="48.77524" lon="2.12443">
        <ele>107</ele>
        <time>2021-05-14T08:33:44Z</time>
      </trkpt>
      <trkpt lat="48.77522" lon="2.12435">
        <ele>107</ele>
        <time>2021-05-14T08:34:01Z</time>
      </trkpt>
      <trkpt lat="48.77525" lon="2.12421">
        <ele>106</ele>
        <time>2021-05-14T08:34:22Z</time>
      </trkpt>
      <trkpt lat="48.7753" lon="2.12414">
        <ele>106</ele>
        <time>2021-05-14T08:34:27Z</time>
      </trkpt>
      <trkpt lat="48.77534" lon="2.12406">
        <ele>106</ele>
        <time>2021-05-14T08:34:33Z</time>
      </trkpt>
      <trkpt lat="48.77537" lon="2.12398">
        <ele>106</ele>
        <time>2021-05-14T08:34:39Z</time>
      </trkpt>
      <trkpt lat="48.77542" lon="2.12392">
        <ele>106</ele>
        <time>2021-05-14T08:34:42Z</time>
      </trkpt>
      <trkpt lat="48.77548" lon="2.12376">
        <ele>106</ele>
        <time>2021-05-14T08:34:51Z</time>
      </trkpt>
      <trkpt lat="48.77547" lon="2.12367">
        <ele>107</ele>
        <time>2021-05-14T08:34:56Z</time>
      </trkpt>
      <trkpt lat="48.77546" lon="2.12357">
        <ele>107</ele>
        <time>2021-05-14T08:35:02Z</time>
      </trkpt>
      <trkpt lat="48.77546" lon="2.1234">
        <ele>106</ele>
        <time>2021-05-14T08:35:14Z</time>
      </trkpt>
      <trkpt lat="48.77548" lon="2.12326">
        <ele>107</ele>
        <time>2021-05-14T08:35:24Z</time>
      </trkpt>
      <trkpt lat="48.77552" lon="2.1232">
        <ele>107</ele>
        <time>2021-05-14T08:35:29Z</time>
      </trkpt>
      <trkpt lat="48.77558" lon="2.12317">
        <ele>107</ele>
        <time>2021-05-14T08:35:34Z</time>
      </trkpt>
      <trkpt lat="48.77565" lon="2.12315">
        <ele>107</ele>
        <time>2021-05-14T08:35:42Z</time>
      </trkpt>
      <trkpt lat="48.77575" lon="2.123">
        <ele>106</ele>
        <time>2021-05-14T08:35:56Z</time>
      </trkpt>
      <trkpt lat="48.7758" lon="2.12295">
        <ele>106</ele>
        <time>2021-05-14T08:36:01Z</time>
      </trkpt>
      <trkpt lat="48.77584" lon="2.12288">
        <ele>106</ele>
        <time>2021-05-14T08:36:06Z</time>
      </trkpt>
      <trkpt lat="48.77601" lon="2.12275">
        <ele>106</ele>
        <time>2021-05-14T08:36:21Z</time>
      </trkpt>
      <trkpt lat="48.77605" lon="2.12267">
        <ele>107</ele>
        <time>2021-05-14T08:36:27Z</time>
      </trkpt>
      <trkpt lat="48.77616" lon="2.12209">
        <ele>107</ele>
        <time>2021-05-14T08:36:55Z</time>
      </trkpt>
      <trkpt lat="48.77631" lon="2.12171">
        <ele>107</ele>
        <time>2021-05-14T08:37:12Z</time>
      </trkpt>
      <trkpt lat="48.77631" lon="2.12163">
        <ele>107</ele>
        <time>2021-05-14T08:37:16Z</time>
      </trkpt>
      <trkpt lat="48.77637" lon="2.1214">
        <ele>107</ele>
        <time>2021-05-14T08:37:28Z</time>
      </trkpt>
      <trkpt lat="48.7764" lon="2.12127">
        <ele>107</ele>
        <time>2021-05-14T08:37:35Z</time>
      </trkpt>
      <trkpt lat="48.77642" lon="2.12122">
        <ele>107</ele>
        <time>2021-05-14T08:37:38Z</time>
      </trkpt>
      <trkpt lat="48.77647" lon="2.12102">
        <ele>107</ele>
        <time>2021-05-14T08:37:48Z</time>
      </trkpt>
      <trkpt lat="48.77657" lon="2.12076">
        <ele>106</ele>
        <time>2021-05-14T08:38:03Z</time>
      </trkpt>
      <trkpt lat="48.77658" lon="2.1207">
        <ele>106</ele>
        <time>2021-05-14T08:38:06Z</time>
      </trkpt>
      <trkpt lat="48.77664" lon="2.12059">
        <ele>106</ele>
        <time>2021-05-14T08:38:13Z</time>
      </trkpt>
      <trkpt lat="48.77675" lon="2.12003">
        <ele>107</ele>
        <time>2021-05-14T08:38:44Z</time>
      </trkpt>
      <trkpt lat="48.77677" lon="2.11991">
        <ele>107</ele>
        <time>2021-05-14T08:38:51Z</time>
      </trkpt>
      <trkpt lat="48.77677" lon="2.11974">
        <ele>107</ele>
        <time>2021-05-14T08:39:01Z</time>
      </trkpt>
      <trkpt lat="48.77679" lon="2.11962">
        <ele>107</ele>
        <time>2021-05-14T08:39:08Z</time>
      </trkpt>
      <trkpt lat="48.77679" lon="2.11953">
        <ele>107</ele>
        <time>2021-05-14T08:39:13Z</time>
      </trkpt>
      <trkpt lat="48.77682" lon="2.11946">
        <ele>107</ele>
        <time>2021-05-14T08:39:17Z</time>
      </trkpt>
      <trkpt lat="48.7768" lon="2.11933">
        <ele>107</ele>
        <time>2021-05-14T08:39:23Z</time>
      </trkpt>
      <trkpt lat="48.7768" lon="2.11923">
        <ele>107</ele>
        <time>2021-05-14T08:39:28Z</time>
      </trkpt>
      <trkpt lat="48.77682" lon="2.11915">
        <ele>107</ele>
        <time>2021-05-14T08:39:32Z</time>
      </trkpt>
      <trkpt lat="48.77687" lon="2.11899">
        <ele>107</ele>
        <time>2021-05-14T08:39:41Z</time>
      </trkpt>
      <trkpt lat="48.77693" lon="2.11873">
        <ele>106</ele>
        <time>2021-05-14T08:39:57Z</time>
      </trkpt>
      <trkpt lat="48.77688" lon="2.11827">
        <ele>107</ele>
        <time>2021-05-14T08:40:27Z</time>
      </trkpt>
      <trkpt lat="48.77685" lon="2.11818">
        <ele>107</ele>
        <time>2021-05-14T08:40:33Z</time>
      </trkpt>
      <trkpt lat="48.77681" lon="2.1181">
        <ele>107</ele>
        <time>2021-05-14T08:40:37Z</time>
      </trkpt>
      <trkpt lat="48.77679" lon="2.118">
        <ele>107</ele>
        <time>2021-05-14T08:40:43Z</time>
      </trkpt>
      <trkpt lat="48.77678" lon="2.11787">
        <ele>107</ele>
        <time>2021-05-14T08:40:57Z</time>
      </trkpt>
      <trkpt lat="48.77675" lon="2.11783">
        <ele>109</ele>
        <time>2021-05-14T08:41:04Z</time>
      </trkpt>
      <trkpt lat="48.77675" lon="2.11774">
        <ele>111</ele>
        <time>2021-05-14T08:41:14Z</time>
      </trkpt>
      <trkpt lat="48.77681" lon="2.11774">
        <ele>110</ele>
        <time>2021-05-14T08:41:27Z</time>
      </trkpt>
      <trkpt lat="48.77693" lon="2.11772">
        <ele>110</ele>
        <time>2021-05-14T08:41:38Z</time>
      </trkpt>
      <trkpt lat="48.77699" lon="2.11773">
        <ele>110</ele>
        <time>2021-05-14T08:41:52Z</time>
      </trkpt>
      <trkpt lat="48.77708" lon="2.11769">
        <ele>110</ele>
        <time>2021-05-14T08:42:08Z</time>
      </trkpt>
      <trkpt lat="48.77714" lon="2.11769">
        <ele>110</ele>
        <time>2021-05-14T08:42:20Z</time>
      </trkpt>
      <trkpt lat="48.7772" lon="2.11768">
        <ele>109</ele>
        <time>2021-05-14T08:42:25Z</time>
      </trkpt>
      <trkpt lat="48.77725" lon="2.11766">
        <ele>110</ele>
        <time>2021-05-14T08:42:30Z</time>
      </trkpt>
      <trkpt lat="48.77732" lon="2.11765">
        <ele>109</ele>
        <time>2021-05-14T08:42:42Z</time>
      </trkpt>
      <trkpt lat="48.77739" lon="2.11761">
        <ele>109</ele>
        <time>2021-05-14T08:42:52Z</time>
      </trkpt>
      <trkpt lat="48.77739" lon="2.1175">
        <ele>109</ele>
        <time>2021-05-14T08:43:12Z</time>
      </trkpt>
      <trkpt lat="48.77736" lon="2.11744">
        <ele>109</ele>
        <time>2021-05-14T08:43:17Z</time>
      </trkpt>
      <trkpt lat="48.77741" lon="2.11721">
        <ele>109</ele>
        <time>2021-05-14T08:43:35Z</time>
      </trkpt>
      <trkpt lat="48.77741" lon="2.11706">
        <ele>110</ele>
        <time>2021-05-14T08:43:53Z</time>
      </trkpt>
      <trkpt lat="48.77739" lon="2.11694">
        <ele>110</ele>
        <time>2021-05-14T08:43:59Z</time>
      </trkpt>
      <trkpt lat="48.77737" lon="2.11684">
        <ele>109</ele>
        <time>2021-05-14T08:44:08Z</time>
      </trkpt>
      <trkpt lat="48.77738" lon="2.11676">
        <ele>109</ele>
        <time>2021-05-14T08:44:14Z</time>
      </trkpt>
      <trkpt lat="48.77741" lon="2.11665">
        <ele>110</ele>
        <time>2021-05-14T08:44:26Z</time>
      </trkpt>
      <trkpt lat="48.77745" lon="2.11658">
        <ele>111</ele>
        <time>2021-05-14T08:44:32Z</time>
      </trkpt>
      <trkpt lat="48.77737" lon="2.11656">
        <ele>109</ele>
        <time>2021-05-14T08:45:17Z</time>
      </trkpt>
      <trkpt lat="48.77736" lon="2.11648">
        <ele>109</ele>
        <time>2021-05-14T08:45:22Z</time>
      </trkpt>
      <trkpt lat="48.77737" lon="2.11638">
        <ele>109</ele>
        <time>2021-05-14T08:45:45Z</time>
      </trkpt>
      <trkpt lat="48.77733" lon="2.11629">
        <ele>109</ele>
        <time>2021-05-14T08:45:51Z</time>
      </trkpt>
      <trkpt lat="48.77731" lon="2.11606">
        <ele>109</ele>
        <time>2021-05-14T08:46:31Z</time>
      </trkpt>
      <trkpt lat="48.7773" lon="2.11594">
        <ele>110</ele>
        <time>2021-05-14T08:46:38Z</time>
      </trkpt>
      <trkpt lat="48.77717" lon="2.11569">
        <ele>110</ele>
        <time>2021-05-14T08:46:59Z</time>
      </trkpt>
      <trkpt lat="48.77701" lon="2.11551">
        <ele>110</ele>
        <time>2021-05-14T08:47:08Z</time>
      </trkpt>
      <trkpt lat="48.77689" lon="2.11531">
        <ele>110</ele>
        <time>2021-05-14T08:47:23Z</time>
      </trkpt>
      <trkpt lat="48.77687" lon="2.11523">
        <ele>109</ele>
        <time>2021-05-14T08:47:28Z</time>
      </trkpt>
      <trkpt lat="48.77687" lon="2.11505">
        <ele>109</ele>
        <time>2021-05-14T08:47:36Z</time>
      </trkpt>
      <trkpt lat="48.77691" lon="2.11479">
        <ele>109</ele>
        <time>2021-05-14T08:47:52Z</time>
      </trkpt>
      <trkpt lat="48.77687" lon="2.11462">
        <ele>109</ele>
        <time>2021-05-14T08:48:01Z</time>
      </trkpt>
      <trkpt lat="48.77695" lon="2.11443">
        <ele>109</ele>
        <time>2021-05-14T08:48:16Z</time>
      </trkpt>
      <trkpt lat="48.77697" lon="2.11433">
        <ele>109</ele>
        <time>2021-05-14T08:48:23Z</time>
      </trkpt>
      <trkpt lat="48.77703" lon="2.11418">
        <ele>109</ele>
        <time>2021-05-14T08:48:32Z</time>
      </trkpt>
      <trkpt lat="48.77704" lon="2.11409">
        <ele>109</ele>
        <time>2021-05-14T08:48:36Z</time>
      </trkpt>
      <trkpt lat="48.77704" lon="2.11401">
        <ele>109</ele>
        <time>2021-05-14T08:48:40Z</time>
      </trkpt>
      <trkpt lat="48.77709" lon="2.11393">
        <ele>109</ele>
        <time>2021-05-14T08:48:45Z</time>
      </trkpt>
      <trkpt lat="48.77708" lon="2.11341">
        <ele>110</ele>
        <time>2021-05-14T08:49:20Z</time>
      </trkpt>
      <trkpt lat="48.7771" lon="2.11317">
        <ele>110</ele>
        <time>2021-05-14T08:49:31Z</time>
      </trkpt>
      <trkpt lat="48.77716" lon="2.11297">
        <ele>110</ele>
        <time>2021-05-14T08:49:43Z</time>
      </trkpt>
      <trkpt lat="48.77719" lon="2.11276">
        <ele>111</ele>
        <time>2021-05-14T08:49:56Z</time>
      </trkpt>
      <trkpt lat="48.77712" lon="2.11214">
        <ele>111</ele>
        <time>2021-05-14T08:50:25Z</time>
      </trkpt>
      <trkpt lat="48.77707" lon="2.11171">
        <ele>112</ele>
        <time>2021-05-14T08:50:53Z</time>
      </trkpt>
      <trkpt lat="48.77701" lon="2.11145">
        <ele>112</ele>
        <time>2021-05-14T08:51:06Z</time>
      </trkpt>
      <trkpt lat="48.77677" lon="2.11071">
        <ele>112</ele>
        <time>2021-05-14T08:51:50Z</time>
      </trkpt>
      <trkpt lat="48.77658" lon="2.11012">
        <ele>112</ele>
        <time>2021-05-14T08:52:21Z</time>
      </trkpt>
      <trkpt lat="48.77639" lon="2.10965">
        <ele>113</ele>
        <time>2021-05-14T08:52:52Z</time>
      </trkpt>
      <trkpt lat="48.77615" lon="2.10908">
        <ele>113</ele>
        <time>2021-05-14T08:53:24Z</time>
      </trkpt>
      <trkpt lat="48.77605" lon="2.10895">
        <ele>112</ele>
        <time>2021-05-14T08:53:37Z</time>
      </trkpt>
      <trkpt lat="48.77589" lon="2.10852">
        <ele>113</ele>
        <time>2021-05-14T08:54:01Z</time>
      </trkpt>
      <trkpt lat="48.77586" lon="2.10843">
        <ele>113</ele>
        <time>2021-05-14T08:54:10Z</time>
      </trkpt>
      <trkpt lat="48.77577" lon="2.10823">
        <ele>113</ele>
        <time>2021-05-14T08:54:23Z</time>
      </trkpt>
      <trkpt lat="48.77575" lon="2.10816">
        <ele>113</ele>
        <time>2021-05-14T08:54:33Z</time>
      </trkpt>
      <trkpt lat="48.77557" lon="2.10751">
        <ele>114</ele>
        <time>2021-05-14T08:55:16Z</time>
      </trkpt>
      <trkpt lat="48.77534" lon="2.10691">
        <ele>114</ele>
        <time>2021-05-14T08:55:42Z</time>
      </trkpt>
      <trkpt lat="48.77534" lon="2.10671">
        <ele>113</ele>
        <time>2021-05-14T08:55:51Z</time>
      </trkpt>
      <trkpt lat="48.77538" lon="2.10663">
        <ele>113</ele>
        <time>2021-05-14T08:56:00Z</time>
      </trkpt>
      <trkpt lat="48.77544" lon="2.10658">
        <ele>112</ele>
        <time>2021-05-14T08:56:08Z</time>
      </trkpt>
      <trkpt lat="48.77551" lon="2.10649">
        <ele>112</ele>
        <time>2021-05-14T08:56:12Z</time>
      </trkpt>
      <trkpt lat="48.77553" lon="2.10644">
        <ele>113</ele>
        <time>2021-05-14T08:56:18Z</time>
      </trkpt>
      <trkpt lat="48.77559" lon="2.10638">
        <ele>113</ele>
        <time>2021-05-14T08:56:23Z</time>
      </trkpt>
      <trkpt lat="48.77587" lon="2.10584">
        <ele>113</ele>
        <time>2021-05-14T08:56:58Z</time>
      </trkpt>
      <trkpt lat="48.77603" lon="2.10519">
        <ele>114</ele>
        <time>2021-05-14T08:57:31Z</time>
      </trkpt>
      <trkpt lat="48.77616" lon="2.10457">
        <ele>114</ele>
        <time>2021-05-14T08:58:04Z</time>
      </trkpt>
      <trkpt lat="48.77622" lon="2.10389">
        <ele>114</ele>
        <time>2021-05-14T08:58:38Z</time>
      </trkpt>
      <trkpt lat="48.77624" lon="2.10369">
        <ele>114</ele>
        <time>2021-05-14T08:58:51Z</time>
      </trkpt>
      <trkpt lat="48.77623" lon="2.10343">
        <ele>114</ele>
        <time>2021-05-14T08:59:05Z</time>
      </trkpt>
      <trkpt lat="48.77618" lon="2.10321">
        <ele>114</ele>
        <time>2021-05-14T08:59:15Z</time>
      </trkpt>
      <trkpt lat="48.77623" lon="2.10275">
        <ele>114</ele>
        <time>2021-05-14T08:59:41Z</time>
      </trkpt>
      <trkpt lat="48.77614" lon="2.10211">
        <ele>115</ele>
        <time>2021-05-14T09:00:12Z</time>
      </trkpt>
      <trkpt lat="48.7762" lon="2.10145">
        <ele>115</ele>
        <time>2021-05-14T09:00:49Z</time>
      </trkpt>
      <trkpt lat="48.77621" lon="2.10128">
        <ele>115</ele>
        <time>2021-05-14T09:00:59Z</time>
      </trkpt>
      <trkpt lat="48.77626" lon="2.10108">
        <ele>115</ele>
        <time>2021-05-14T09:01:15Z</time>
      </trkpt>
      <trkpt lat="48.77626" lon="2.10098">
        <ele>115</ele>
        <time>2021-05-14T09:01:21Z</time>
      </trkpt>
      <trkpt lat="48.77622" lon="2.10093">
        <ele>115</ele>
        <time>2021-05-14T09:01:25Z</time>
      </trkpt>
      <trkpt lat="48.77625" lon="2.10084">
        <ele>115</ele>
        <time>2021-05-14T09:01:29Z</time>
      </trkpt>
      <trkpt lat="48.77629" lon="2.10078">
        <ele>115</ele>
        <time>2021-05-14T09:01:33Z</time>
      </trkpt>
      <trkpt lat="48.77626" lon="2.1007">
        <ele>115</ele>
        <time>2021-05-14T09:01:38Z</time>
      </trkpt>
      <trkpt lat="48.77638" lon="2.10056">
        <ele>115</ele>
        <time>2021-05-14T09:01:51Z</time>
      </trkpt>
      <trkpt lat="48.77642" lon="2.10046">
        <ele>115</ele>
        <time>2021-05-14T09:01:55Z</time>
      </trkpt>
      <trkpt lat="48.77653" lon="2.10039">
        <ele>115</ele>
        <time>2021-05-14T09:02:04Z</time>
      </trkpt>
      <trkpt lat="48.77661" lon="2.10027">
        <ele>114</ele>
        <time>2021-05-14T09:02:11Z</time>
      </trkpt>
      <trkpt lat="48.77671" lon="2.1002">
        <ele>114</ele>
        <time>2021-05-14T09:02:20Z</time>
      </trkpt>
      <trkpt lat="48.77681" lon="2.10003">
        <ele>115</ele>
        <time>2021-05-14T09:02:37Z</time>
      </trkpt>
      <trkpt lat="48.7769" lon="2.1">
        <ele>115</ele>
        <time>2021-05-14T09:02:47Z</time>
      </trkpt>
      <trkpt lat="48.77696" lon="2.09992">
        <ele>115</ele>
        <time>2021-05-14T09:03:04Z</time>
      </trkpt>
      <trkpt lat="48.7771" lon="2.10002">
        <ele>115</ele>
        <time>2021-05-14T09:03:41Z</time>
      </trkpt>
      <trkpt lat="48.77746" lon="2.0996">
        <ele>116</ele>
        <time>2021-05-14T09:04:26Z</time>
      </trkpt>
      <trkpt lat="48.77763" lon="2.09924">
        <ele>115</ele>
        <time>2021-05-14T09:04:43Z</time>
      </trkpt>
      <trkpt lat="48.77768" lon="2.09883">
        <ele>115</ele>
        <time>2021-05-14T09:05:05Z</time>
      </trkpt>
      <trkpt lat="48.7779" lon="2.09841">
        <ele>115</ele>
        <time>2021-05-14T09:05:43Z</time>
      </trkpt>
      <trkpt lat="48.77828" lon="2.09858">
        <ele>115</ele>
        <time>2021-05-14T09:06:19Z</time>
      </trkpt>
      <trkpt lat="48.77852" lon="2.09882">
        <ele>115</ele>
        <time>2021-05-14T09:06:50Z</time>
      </trkpt>
      <trkpt lat="48.77883" lon="2.09886">
        <ele>117</ele>
        <time>2021-05-14T09:07:22Z</time>
      </trkpt>
      <trkpt lat="48.77913" lon="2.0988">
        <ele>117</ele>
        <time>2021-05-14T09:07:45Z</time>
      </trkpt>
      <trkpt lat="48.7794" lon="2.0986">
        <ele>119</ele>
        <time>2021-05-14T09:08:10Z</time>
      </trkpt>
      <trkpt lat="48.77961" lon="2.09827">
        <ele>121</ele>
        <time>2021-05-14T09:08:33Z</time>
      </trkpt>
      <trkpt lat="48.77974" lon="2.09779">
        <ele>121</ele>
        <time>2021-05-14T09:09:04Z</time>
      </trkpt>
      <trkpt lat="48.78001" lon="2.09737">
        <ele>121</ele>
        <time>2021-05-14T09:09:36Z</time>
      </trkpt>
      <trkpt lat="48.78012" lon="2.09701">
        <ele>121</ele>
        <time>2021-05-14T09:10:02Z</time>
      </trkpt>
      <trkpt lat="48.78028" lon="2.09661">
        <ele>119</ele>
        <time>2021-05-14T09:11:14Z</time>
      </trkpt>
      <trkpt lat="48.78033" lon="2.0964">
        <ele>119</ele>
        <time>2021-05-14T09:11:35Z</time>
      </trkpt>
      <trkpt lat="48.78043" lon="2.09618">
        <ele>121</ele>
        <time>2021-05-14T09:11:55Z</time>
      </trkpt>
      <trkpt lat="48.78035" lon="2.09569">
        <ele>124</ele>
        <time>2021-05-14T09:12:18Z</time>
      </trkpt>
      <trkpt lat="48.7805" lon="2.09546">
        <ele>125</ele>
        <time>2021-05-14T09:12:47Z</time>
      </trkpt>
      <trkpt lat="48.78044" lon="2.0952">
        <ele>125</ele>
        <time>2021-05-14T09:13:04Z</time>
      </trkpt>
      <trkpt lat="48.78032" lon="2.09485">
        <ele>122</ele>
        <time>2021-05-14T09:13:24Z</time>
      </trkpt>
      <trkpt lat="48.78031" lon="2.09475">
        <ele>122</ele>
        <time>2021-05-14T09:13:33Z</time>
      </trkpt>
      <trkpt lat="48.78034" lon="2.09479">
        <ele>123</ele>
        <time>2021-05-14T09:14:30Z</time>
      </trkpt>
      <trkpt lat="48.78037" lon="2.09473">
        <ele>123</ele>
        <time>2021-05-14T09:14:38Z</time>
      </trkpt>
      <trkpt lat="48.78035" lon="2.09464">
        <ele>123</ele>
        <time>2021-05-14T09:14:45Z</time>
      </trkpt>
      <trkpt lat="48.78033" lon="2.09446">
        <ele>123</ele>
        <time>2021-05-14T09:14:54Z</time>
      </trkpt>
      <trkpt lat="48.78028" lon="2.09432">
        <ele>123</ele>
        <time>2021-05-14T09:15:06Z</time>
      </trkpt>
      <trkpt lat="48.78025" lon="2.09407">
        <ele>123</ele>
        <time>2021-05-14T09:15:20Z</time>
      </trkpt>
      <trkpt lat="48.78029" lon="2.0936">
        <ele>123</ele>
        <time>2021-05-14T09:16:06Z</time>
      </trkpt>
      <trkpt lat="48.78033" lon="2.09294">
        <ele>124</ele>
        <time>2021-05-14T09:16:43Z</time>
      </trkpt>
      <trkpt lat="48.78034" lon="2.09272">
        <ele>124</ele>
        <time>2021-05-14T09:17:32Z</time>
      </trkpt>
      <trkpt lat="48.78042" lon="2.09235">
        <ele>124</ele>
        <time>2021-05-14T09:18:13Z</time>
      </trkpt>
      <trkpt lat="48.78062" lon="2.09172">
        <ele>124</ele>
        <time>2021-05-14T09:18:49Z</time>
      </trkpt>
      <trkpt lat="48.78086" lon="2.09144">
        <ele>125</ele>
        <time>2021-05-14T09:19:10Z</time>
      </trkpt>
      <trkpt lat="48.78123" lon="2.09112">
        <ele>125</ele>
        <time>2021-05-14T09:19:45Z</time>
      </trkpt>
      <trkpt lat="48.78149" lon="2.0909">
        <ele>125</ele>
        <time>2021-05-14T09:20:08Z</time>
      </trkpt>
      <trkpt lat="48.78165" lon="2.09076">
        <ele>126</ele>
        <time>2021-05-14T09:20:31Z</time>
      </trkpt>
      <trkpt lat="48.78172" lon="2.09062">
        <ele>126</ele>
        <time>2021-05-14T09:20:38Z</time>
      </trkpt>
      <trkpt lat="48.78179" lon="2.09061">
        <ele>126</ele>
        <time>2021-05-14T09:20:44Z</time>
      </trkpt>
      <trkpt lat="48.78194" lon="2.09039">
        <ele>126</ele>
        <time>2021-05-14T09:21:00Z</time>
      </trkpt>
      <trkpt lat="48.78197" lon="2.09026">
        <ele>127</ele>
        <time>2021-05-14T09:21:11Z</time>
      </trkpt>
      <trkpt lat="48.782" lon="2.09018">
        <ele>127</ele>
        <time>2021-05-14T09:21:16Z</time>
      </trkpt>
      <trkpt lat="48.7818" lon="2.08966">
        <ele>127</ele>
        <time>2021-05-14T09:21:46Z</time>
      </trkpt>
      <trkpt lat="48.78144" lon="2.08926">
        <ele>127</ele>
        <time>2021-05-14T09:22:20Z</time>
      </trkpt>
      <trkpt lat="48.78125" lon="2.08906">
        <ele>127</ele>
        <time>2021-05-14T09:22:37Z</time>
      </trkpt>
      <trkpt lat="48.7812" lon="2.08894">
        <ele>128</ele>
        <time>2021-05-14T09:22:46Z</time>
      </trkpt>
      <trkpt lat="48.78118" lon="2.08885">
        <ele>128</ele>
        <time>2021-05-14T09:22:59Z</time>
      </trkpt>
      <trkpt lat="48.78114" lon="2.08877">
        <ele>129</ele>
        <time>2021-05-14T09:23:09Z</time>
      </trkpt>
      <trkpt lat="48.78107" lon="2.08874">
        <ele>129</ele>
        <time>2021-05-14T09:23:14Z</time>
      </trkpt>
      <trkpt lat="48.78092" lon="2.08855">
        <ele>130</ele>
        <time>2021-05-14T09:23:28Z</time>
      </trkpt>
      <trkpt lat="48.78078" lon="2.08781">
        <ele>133</ele>
        <time>2021-05-14T09:24:02Z</time>
      </trkpt>
      <trkpt lat="48.78074" lon="2.08759">
        <ele>134</ele>
        <time>2021-05-14T09:24:14Z</time>
      </trkpt>
      <trkpt lat="48.78068" lon="2.0875">
        <ele>134</ele>
        <time>2021-05-14T09:24:22Z</time>
      </trkpt>
      <trkpt lat="48.78062" lon="2.08745">
        <ele>134</ele>
        <time>2021-05-14T09:24:36Z</time>
      </trkpt>
      <trkpt lat="48.78058" lon="2.08734">
        <ele>134</ele>
        <time>2021-05-14T09:24:44Z</time>
      </trkpt>
      <trkpt lat="48.78052" lon="2.08725">
        <ele>134</ele>
        <time>2021-05-14T09:24:49Z</time>
      </trkpt>
      <trkpt lat="48.78058" lon="2.08696">
        <ele>134</ele>
        <time>2021-05-14T09:25:00Z</time>
      </trkpt>
      <trkpt lat="48.78074" lon="2.08657">
        <ele>133</ele>
        <time>2021-05-14T09:25:18Z</time>
      </trkpt>
      <trkpt lat="48.78108" lon="2.08606">
        <ele>132</ele>
        <time>2021-05-14T09:25:51Z</time>
      </trkpt>
      <trkpt lat="48.78113" lon="2.08598">
        <ele>132</ele>
        <time>2021-05-14T09:25:57Z</time>
      </trkpt>
      <trkpt lat="48.78117" lon="2.08594">
        <ele>132</ele>
        <time>2021-05-14T09:26:01Z</time>
      </trkpt>
      <trkpt lat="48.78122" lon="2.08586">
        <ele>132</ele>
        <time>2021-05-14T09:26:08Z</time>
      </trkpt>
      <trkpt lat="48.78128" lon="2.08582">
        <ele>132</ele>
        <time>2021-05-14T09:26:12Z</time>
      </trkpt>
      <trkpt lat="48.78141" lon="2.0857">
        <ele>132</ele>
        <time>2021-05-14T09:26:26Z</time>
      </trkpt>
      <trkpt lat="48.78145" lon="2.08565">
        <ele>131</ele>
        <time>2021-05-14T09:26:31Z</time>
      </trkpt>
      <trkpt lat="48.78149" lon="2.08553">
        <ele>131</ele>
        <time>2021-05-14T09:26:44Z</time>
      </trkpt>
      <trkpt lat="48.78154" lon="2.08544">
        <ele>131</ele>
        <time>2021-05-14T09:27:29Z</time>
      </trkpt>
      <trkpt lat="48.78164" lon="2.08529">
        <ele>130</ele>
        <time>2021-05-14T09:27:54Z</time>
      </trkpt>
      <trkpt lat="48.78171" lon="2.08511">
        <ele>131</ele>
        <time>2021-05-14T09:28:04Z</time>
      </trkpt>
      <trkpt lat="48.78185" lon="2.085">
        <ele>131</ele>
        <time>2021-05-14T09:28:19Z</time>
      </trkpt>
      <trkpt lat="48.78216" lon="2.08433">
        <ele>132</ele>
        <time>2021-05-14T09:28:53Z</time>
      </trkpt>
      <trkpt lat="48.78228" lon="2.0839">
        <ele>132</ele>
        <time>2021-05-14T09:29:22Z</time>
      </trkpt>
      <trkpt lat="48.78222" lon="2.08386">
        <ele>132</ele>
        <time>2021-05-14T09:29:57Z</time>
      </trkpt>
      <trkpt lat="48.78222" lon="2.08394">
        <ele>134</ele>
        <time>2021-05-14T09:32:23Z</time>
      </trkpt>
      <trkpt lat="48.78215" lon="2.08401">
        <ele>134</ele>
        <time>2021-05-14T09:32:38Z</time>
      </trkpt>
      <trkpt lat="48.78208" lon="2.08401">
        <ele>136</ele>
        <time>2021-05-14T09:32:51Z</time>
      </trkpt>
      <trkpt lat="48.78202" lon="2.08395">
        <ele>137</ele>
        <time>2021-05-14T09:33:01Z</time>
      </trkpt>
      <trkpt lat="48.78152" lon="2.08393">
        <ele>142</ele>
        <time>2021-05-14T09:33:33Z</time>
      </trkpt>
      <trkpt lat="48.78136" lon="2.08387">
        <ele>143</ele>
        <time>2021-05-14T09:33:43Z</time>
      </trkpt>
      <trkpt lat="48.78143" lon="2.08367">
        <ele>147</ele>
        <time>2021-05-14T09:34:22Z</time>
      </trkpt>
      <trkpt lat="48.78148" lon="2.08337">
        <ele>152</ele>
        <time>2021-05-14T09:34:59Z</time>
      </trkpt>
      <trkpt lat="48.78155" lon="2.0832">
        <ele>153</ele>
        <time>2021-05-14T09:35:16Z</time>
      </trkpt>
      <trkpt lat="48.78159" lon="2.08314">
        <ele>153</ele>
        <time>2021-05-14T09:35:20Z</time>
      </trkpt>
      <trkpt lat="48.78175" lon="2.08298">
        <ele>153</ele>
        <time>2021-05-14T09:35:41Z</time>
      </trkpt>
      <trkpt lat="48.78186" lon="2.08281">
        <ele>153</ele>
        <time>2021-05-14T09:35:52Z</time>
      </trkpt>
      <trkpt lat="48.78191" lon="2.08261">
        <ele>154</ele>
        <time>2021-05-14T09:36:10Z</time>
      </trkpt>
      <trkpt lat="48.78188" lon="2.08241">
        <ele>154</ele>
        <time>2021-05-14T09:36:18Z</time>
      </trkpt>
      <trkpt lat="48.78191" lon="2.08227">
        <ele>154</ele>
        <time>2021-05-14T09:36:24Z</time>
      </trkpt>
      <trkpt lat="48.78202" lon="2.08209">
        <ele>155</ele>
        <time>2021-05-14T09:36:37Z</time>
      </trkpt>
      <trkpt lat="48.78207" lon="2.08193">
        <ele>155</ele>
        <time>2021-05-14T09:36:48Z</time>
      </trkpt>
      <trkpt lat="48.78205" lon="2.08174">
        <ele>155</ele>
        <time>2021-05-14T09:36:59Z</time>
      </trkpt>
      <trkpt lat="48.78213" lon="2.08155">
        <ele>155</ele>
        <time>2021-05-14T09:37:10Z</time>
      </trkpt>
      <trkpt lat="48.7822" lon="2.08129">
        <ele>155</ele>
        <time>2021-05-14T09:37:26Z</time>
      </trkpt>
      <trkpt lat="48.78221" lon="2.0812">
        <ele>155</ele>
        <time>2021-05-14T09:37:31Z</time>
      </trkpt>
      <trkpt lat="48.78225" lon="2.08108">
        <ele>155</ele>
        <time>2021-05-14T09:37:36Z</time>
      </trkpt>
      <trkpt lat="48.7824" lon="2.08082">
        <ele>155</ele>
        <time>2021-05-14T09:37:50Z</time>
      </trkpt>
      <trkpt lat="48.78247" lon="2.0806">
        <ele>155</ele>
        <time>2021-05-14T09:38:05Z</time>
      </trkpt>
      <trkpt lat="48.78247" lon="2.08051">
        <ele>155</ele>
        <time>2021-05-14T09:38:11Z</time>
      </trkpt>
      <trkpt lat="48.78244" lon="2.08043">
        <ele>155</ele>
        <time>2021-05-14T09:38:16Z</time>
      </trkpt>
      <trkpt lat="48.78244" lon="2.08031">
        <ele>155</ele>
        <time>2021-05-14T09:38:25Z</time>
      </trkpt>
      <trkpt lat="48.78246" lon="2.08024">
        <ele>155</ele>
        <time>2021-05-14T09:38:30Z</time>
      </trkpt>
      <trkpt lat="48.78236" lon="2.07993">
        <ele>155</ele>
        <time>2021-05-14T09:38:48Z</time>
      </trkpt>
      <trkpt lat="48.78237" lon="2.07984">
        <ele>155</ele>
        <time>2021-05-14T09:38:53Z</time>
      </trkpt>
      <trkpt lat="48.78241" lon="2.07969">
        <ele>154</ele>
        <time>2021-05-14T09:39:02Z</time>
      </trkpt>
      <trkpt lat="48.7825" lon="2.07924">
        <ele>152</ele>
        <time>2021-05-14T09:39:23Z</time>
      </trkpt>
      <trkpt lat="48.78241" lon="2.07884">
        <ele>150</ele>
        <time>2021-05-14T09:40:09Z</time>
      </trkpt>
      <trkpt lat="48.78239" lon="2.07872">
        <ele>149</ele>
        <time>2021-05-14T09:40:16Z</time>
      </trkpt>
      <trkpt lat="48.78235" lon="2.07859">
        <ele>149</ele>
        <time>2021-05-14T09:40:33Z</time>
      </trkpt>
      <trkpt lat="48.78227" lon="2.07851">
        <ele>149</ele>
        <time>2021-05-14T09:40:43Z</time>
      </trkpt>
      <trkpt lat="48.78226" lon="2.07837">
        <ele>149</ele>
        <time>2021-05-14T09:40:54Z</time>
      </trkpt>
      <trkpt lat="48.78211" lon="2.07784">
        <ele>149</ele>
        <time>2021-05-14T09:41:28Z</time>
      </trkpt>
      <trkpt lat="48.78202" lon="2.07766">
        <ele>148</ele>
        <time>2021-05-14T09:41:41Z</time>
      </trkpt>
      <trkpt lat="48.78163" lon="2.07698">
        <ele>149</ele>
        <time>2021-05-14T09:42:27Z</time>
      </trkpt>
      <trkpt lat="48.78134" lon="2.07673">
        <ele>152</ele>
        <time>2021-05-14T09:42:56Z</time>
      </trkpt>
      <trkpt lat="48.78118" lon="2.07647">
        <ele>153</ele>
        <time>2021-05-14T09:43:18Z</time>
      </trkpt>
      <trkpt lat="48.78114" lon="2.07632">
        <ele>153</ele>
        <time>2021-05-14T09:43:26Z</time>
      </trkpt>
      <trkpt lat="48.78111" lon="2.07625">
        <ele>153</ele>
        <time>2021-05-14T09:43:30Z</time>
      </trkpt>
      <trkpt lat="48.78106" lon="2.07621">
        <ele>153</ele>
        <time>2021-05-14T09:43:38Z</time>
      </trkpt>
      <trkpt lat="48.78096" lon="2.07612">
        <ele>153</ele>
        <time>2021-05-14T09:43:50Z</time>
      </trkpt>
      <trkpt lat="48.78091" lon="2.07602">
        <ele>154</ele>
        <time>2021-05-14T09:43:58Z</time>
      </trkpt>
      <trkpt lat="48.78087" lon="2.07587">
        <ele>154</ele>
        <time>2021-05-14T09:44:16Z</time>
      </trkpt>
      <trkpt lat="48.78081" lon="2.07574">
        <ele>154</ele>
        <time>2021-05-14T09:44:27Z</time>
      </trkpt>
      <trkpt lat="48.78069" lon="2.07553">
        <ele>154</ele>
        <time>2021-05-14T09:44:54Z</time>
      </trkpt>
      <trkpt lat="48.78058" lon="2.07537">
        <ele>155</ele>
        <time>2021-05-14T09:45:06Z</time>
      </trkpt>
      <trkpt lat="48.78049" lon="2.07513">
        <ele>156</ele>
        <time>2021-05-14T09:45:29Z</time>
      </trkpt>
      <trkpt lat="48.78039" lon="2.07461">
        <ele>156</ele>
        <time>2021-05-14T09:46:05Z</time>
      </trkpt>
      <trkpt lat="48.78016" lon="2.07402">
        <ele>157</ele>
        <time>2021-05-14T09:46:38Z</time>
      </trkpt>
      <trkpt lat="48.78027" lon="2.07361">
        <ele>156</ele>
        <time>2021-05-14T09:46:56Z</time>
      </trkpt>
      <trkpt lat="48.78028" lon="2.07329">
        <ele>154</ele>
        <time>2021-05-14T09:47:24Z</time>
      </trkpt>
      <trkpt lat="48.78036" lon="2.07297">
        <ele>151</ele>
        <time>2021-05-14T09:47:50Z</time>
      </trkpt>
      <trkpt lat="48.78045" lon="2.07278">
        <ele>149</ele>
        <time>2021-05-14T09:48:05Z</time>
      </trkpt>
      <trkpt lat="48.78051" lon="2.07191">
        <ele>147</ele>
        <time>2021-05-14T09:49:06Z</time>
      </trkpt>
      <trkpt lat="48.78053" lon="2.07092">
        <ele>144</ele>
        <time>2021-05-14T09:50:02Z</time>
      </trkpt>
      <trkpt lat="48.78054" lon="2.07054">
        <ele>141</ele>
        <time>2021-05-14T09:50:35Z</time>
      </trkpt>
      <trkpt lat="48.78065" lon="2.07002">
        <ele>132</ele>
        <time>2021-05-14T09:51:22Z</time>
      </trkpt>
      <trkpt lat="48.78044" lon="2.06964">
        <ele>133</ele>
        <time>2021-05-14T09:52:44Z</time>
      </trkpt>
      <trkpt lat="48.78063" lon="2.06907">
        <ele>132</ele>
        <time>2021-05-14T09:53:41Z</time>
      </trkpt>
      <trkpt lat="48.78077" lon="2.06869">
        <ele>133</ele>
        <time>2021-05-14T09:54:20Z</time>
      </trkpt>
      <trkpt lat="48.78108" lon="2.06899">
        <ele>133</ele>
        <time>2021-05-14T09:54:57Z</time>
      </trkpt>
      <trkpt lat="48.78112" lon="2.0692">
        <ele>133</ele>
        <time>2021-05-14T09:55:41Z</time>
      </trkpt>
      <trkpt lat="48.78129" lon="2.06943">
        <ele>134</ele>
        <time>2021-05-14T09:56:19Z</time>
      </trkpt>
      <trkpt lat="48.78161" lon="2.06991">
        <ele>134</ele>
        <time>2021-05-14T09:56:50Z</time>
      </trkpt>
      <trkpt lat="48.78168" lon="2.07049">
        <ele>134</ele>
        <time>2021-05-14T09:57:26Z</time>
      </trkpt>
      <trkpt lat="48.78174" lon="2.07081">
        <ele>134</ele>
        <time>2021-05-14T09:57:48Z</time>
      </trkpt>
      <trkpt lat="48.78177" lon="2.07111">
        <ele>134</ele>
        <time>2021-05-14T09:58:11Z</time>
      </trkpt>
      <trkpt lat="48.78183" lon="2.07131">
        <ele>135</ele>
        <time>2021-05-14T09:58:21Z</time>
      </trkpt>
      <trkpt lat="48.78166" lon="2.07209">
        <ele>135</ele>
        <time>2021-05-14T09:59:00Z</time>
      </trkpt>
      <trkpt lat="48.78164" lon="2.07254">
        <ele>135</ele>
        <time>2021-05-14T09:59:24Z</time>
      </trkpt>
      <trkpt lat="48.78155" lon="2.07338">
        <ele>133</ele>
        <time>2021-05-14T10:00:07Z</time>
      </trkpt>
      <trkpt lat="48.78168" lon="2.07394">
        <ele>133</ele>
        <time>2021-05-14T10:00:35Z</time>
      </trkpt>
      <trkpt lat="48.78184" lon="2.0743">
        <ele>132</ele>
        <time>2021-05-14T10:00:55Z</time>
      </trkpt>
      <trkpt lat="48.7819" lon="2.07482">
        <ele>134</ele>
        <time>2021-05-14T10:01:28Z</time>
      </trkpt>
      <trkpt lat="48.78201" lon="2.07518">
        <ele>133</ele>
        <time>2021-05-14T10:01:46Z</time>
      </trkpt>
      <trkpt lat="48.78217" lon="2.07537">
        <ele>132</ele>
        <time>2021-05-14T10:02:22Z</time>
      </trkpt>
      <trkpt lat="48.7823" lon="2.07551">
        <ele>132</ele>
        <time>2021-05-14T10:02:37Z</time>
      </trkpt>
      <trkpt lat="48.78253" lon="2.0757">
        <ele>132</ele>
        <time>2021-05-14T10:02:53Z</time>
      </trkpt>
      <trkpt lat="48.78267" lon="2.07589">
        <ele>131</ele>
        <time>2021-05-14T10:03:10Z</time>
      </trkpt>
      <trkpt lat="48.78281" lon="2.07606">
        <ele>131</ele>
        <time>2021-05-14T10:03:57Z</time>
      </trkpt>
      <trkpt lat="48.7831" lon="2.07624">
        <ele>131</ele>
        <time>2021-05-14T10:04:26Z</time>
      </trkpt>
      <trkpt lat="48.78322" lon="2.07639">
        <ele>131</ele>
        <time>2021-05-14T10:04:38Z</time>
      </trkpt>
      <trkpt lat="48.78343" lon="2.0767">
        <ele>132</ele>
        <time>2021-05-14T10:04:54Z</time>
      </trkpt>
      <trkpt lat="48.78378" lon="2.07703">
        <ele>131</ele>
        <time>2021-05-14T10:05:31Z</time>
      </trkpt>
      <trkpt lat="48.78389" lon="2.07707">
        <ele>131</ele>
        <time>2021-05-14T10:05:37Z</time>
      </trkpt>
      <trkpt lat="48.78403" lon="2.0772">
        <ele>132</ele>
        <time>2021-05-14T10:05:57Z</time>
      </trkpt>
      <trkpt lat="48.78409" lon="2.07741">
        <ele>133</ele>
        <time>2021-05-14T10:06:11Z</time>
      </trkpt>
      <trkpt lat="48.78415" lon="2.07763">
        <ele>133</ele>
        <time>2021-05-14T10:06:23Z</time>
      </trkpt>
      <trkpt lat="48.78426" lon="2.0778">
        <ele>133</ele>
        <time>2021-05-14T10:06:33Z</time>
      </trkpt>
      <trkpt lat="48.78432" lon="2.078">
        <ele>133</ele>
        <time>2021-05-14T10:06:48Z</time>
      </trkpt>
      <trkpt lat="48.78452" lon="2.07849">
        <ele>134</ele>
        <time>2021-05-14T10:07:24Z</time>
      </trkpt>
      <trkpt lat="48.78462" lon="2.0787">
        <ele>136</ele>
        <time>2021-05-14T10:07:38Z</time>
      </trkpt>
      <trkpt lat="48.78465" lon="2.07888">
        <ele>137</ele>
        <time>2021-05-14T10:07:47Z</time>
      </trkpt>
      <trkpt lat="48.78484" lon="2.07904">
        <ele>135</ele>
        <time>2021-05-14T10:08:07Z</time>
      </trkpt>
      <trkpt lat="48.78493" lon="2.07924">
        <ele>134</ele>
        <time>2021-05-14T10:08:19Z</time>
      </trkpt>
      <trkpt lat="48.78505" lon="2.07963">
        <ele>136</ele>
        <time>2021-05-14T10:08:47Z</time>
      </trkpt>
      <trkpt lat="48.78541" lon="2.08024">
        <ele>136</ele>
        <time>2021-05-14T10:09:28Z</time>
      </trkpt>
      <trkpt lat="48.78567" lon="2.08064">
        <ele>139</ele>
        <time>2021-05-14T10:10:13Z</time>
      </trkpt>
      <trkpt lat="48.78604" lon="2.08094">
        <ele>137</ele>
        <time>2021-05-14T10:11:06Z</time>
      </trkpt>
      <trkpt lat="48.78657" lon="2.08086">
        <ele>133</ele>
        <time>2021-05-14T10:12:22Z</time>
      </trkpt>
      <trkpt lat="48.78688" lon="2.08092">
        <ele>133</ele>
        <time>2021-05-14T10:12:53Z</time>
      </trkpt>
      <trkpt lat="48.78734" lon="2.08149">
        <ele>134</ele>
        <time>2021-05-14T10:13:28Z</time>
      </trkpt>
      <trkpt lat="48.78745" lon="2.08169">
        <ele>130</ele>
        <time>2021-05-14T10:16:41Z</time>
      </trkpt>
      <trkpt lat="48.78758" lon="2.08163">
        <ele>130</ele>
        <time>2021-05-14T10:17:51Z</time>
      </trkpt>
      <trkpt lat="48.78758" lon="2.08198">
        <ele>130</ele>
        <time>2021-05-14T10:19:44Z</time>
      </trkpt>
      <trkpt lat="48.78763" lon="2.08192">
        <ele>130</ele>
        <time>2021-05-14T10:28:30Z</time>
      </trkpt>
      <trkpt lat="48.78766" lon="2.08199">
        <ele>130</ele>
        <time>2021-05-14T10:29:01Z</time>
      </trkpt>
      <trkpt lat="48.78771" lon="2.08189">
        <ele>130</ele>
        <time>2021-05-14T10:30:46Z</time>
      </trkpt>
      <trkpt lat="48.7877" lon="2.08181">
        <ele>131</ele>
        <time>2021-05-14T10:31:51Z</time>
      </trkpt>
      <trkpt lat="48.78767" lon="2.08199">
        <ele>130</ele>
        <time>2021-05-14T10:33:00Z</time>
      </trkpt>
      <trkpt lat="48.78771" lon="2.08192">
        <ele>130</ele>
        <time>2021-05-14T10:33:24Z</time>
      </trkpt>
      <trkpt lat="48.78772" lon="2.08178">
        <ele>130</ele>
        <time>2021-05-14T10:34:14Z</time>
      </trkpt>
      <trkpt lat="48.78766" lon="2.0818">
        <ele>130</ele>
        <time>2021-05-14T10:34:45Z</time>
      </trkpt>
      <trkpt lat="48.78763" lon="2.08182">
        <ele>130</ele>
        <time>2021-05-14T10:36:25Z</time>
      </trkpt>
      <trkpt lat="48.78768" lon="2.0818">
        <ele>131</ele>
        <time>2021-05-14T10:45:43Z</time>
      </trkpt>
      <trkpt lat="48.78779" lon="2.08194">
        <ele>131</ele>
        <time>2021-05-14T10:46:08Z</time>
      </trkpt>
      <trkpt lat="48.78805" lon="2.08196">
        <ele>131</ele>
        <time>2021-05-14T10:46:51Z</time>
      </trkpt>
      <trkpt lat="48.78818" lon="2.08191">
        <ele>132</ele>
        <time>2021-05-14T10:47:00Z</time>
      </trkpt>
      <trkpt lat="48.78825" lon="2.08171">
        <ele>132</ele>
        <time>2021-05-14T10:47:19Z</time>
      </trkpt>
      <trkpt lat="48.78825" lon="2.08116">
        <ele>134</ele>
        <time>2021-05-14T10:47:54Z</time>
      </trkpt>
      <trkpt lat="48.78829" lon="2.0807">
        <ele>135</ele>
        <time>2021-05-14T10:48:24Z</time>
      </trkpt>
      <trkpt lat="48.78815" lon="2.08024">
        <ele>136</ele>
        <time>2021-05-14T10:48:56Z</time>
      </trkpt>
      <trkpt lat="48.78815" lon="2.08001">
        <ele>137</ele>
        <time>2021-05-14T10:49:06Z</time>
      </trkpt>
      <trkpt lat="48.78801" lon="2.07944">
        <ele>136</ele>
        <time>2021-05-14T10:49:43Z</time>
      </trkpt>
      <trkpt lat="48.78795" lon="2.07876">
        <ele>138</ele>
        <time>2021-05-14T10:50:16Z</time>
      </trkpt>
      <trkpt lat="48.78793" lon="2.07853">
        <ele>137</ele>
        <time>2021-05-14T10:50:28Z</time>
      </trkpt>
      <trkpt lat="48.7879" lon="2.07832">
        <ele>139</ele>
        <time>2021-05-14T10:50:42Z</time>
      </trkpt>
      <trkpt lat="48.78792" lon="2.07802">
        <ele>141</ele>
        <time>2021-05-14T10:51:16Z</time>
      </trkpt>
      <trkpt lat="48.78796" lon="2.0778">
        <ele>141</ele>
        <time>2021-05-14T10:51:32Z</time>
      </trkpt>
      <trkpt lat="48.7879" lon="2.07706">
        <ele>142</ele>
        <time>2021-05-14T10:51:52Z</time>
      </trkpt>
      <trkpt lat="48.78781" lon="2.0762">
        <ele>144</ele>
        <time>2021-05-14T10:52:37Z</time>
      </trkpt>
      <trkpt lat="48.78777" lon="2.07598">
        <ele>145</ele>
        <time>2021-05-14T10:52:47Z</time>
      </trkpt>
      <trkpt lat="48.78777" lon="2.07571">
        <ele>145</ele>
        <time>2021-05-14T10:53:05Z</time>
      </trkpt>
      <trkpt lat="48.78773" lon="2.07567">
        <ele>145</ele>
        <time>2021-05-14T10:53:14Z</time>
      </trkpt>
      <trkpt lat="48.7877" lon="2.07552">
        <ele>146</ele>
        <time>2021-05-14T10:53:29Z</time>
      </trkpt>
      <trkpt lat="48.78774" lon="2.07497">
        <ele>147</ele>
        <time>2021-05-14T10:54:04Z</time>
      </trkpt>
      <trkpt lat="48.78786" lon="2.07432">
        <ele>148</ele>
        <time>2021-05-14T10:54:40Z</time>
      </trkpt>
      <trkpt lat="48.788" lon="2.07416">
        <ele>149</ele>
        <time>2021-05-14T10:54:50Z</time>
      </trkpt>
      <trkpt lat="48.78828" lon="2.074">
        <ele>149</ele>
        <time>2021-05-14T10:55:15Z</time>
      </trkpt>
      <trkpt lat="48.78836" lon="2.0738">
        <ele>150</ele>
        <time>2021-05-14T10:55:29Z</time>
      </trkpt>
      <trkpt lat="48.78834" lon="2.07313">
        <ele>151</ele>
        <time>2021-05-14T10:55:55Z</time>
      </trkpt>
      <trkpt lat="48.78847" lon="2.07277">
        <ele>152</ele>
        <time>2021-05-14T10:56:25Z</time>
      </trkpt>
      <trkpt lat="48.78831" lon="2.07185">
        <ele>152</ele>
        <time>2021-05-14T10:56:55Z</time>
      </trkpt>
      <trkpt lat="48.78834" lon="2.07099">
        <ele>153</ele>
        <time>2021-05-14T10:57:29Z</time>
      </trkpt>
      <trkpt lat="48.78841" lon="2.07048">
        <ele>154</ele>
        <time>2021-05-14T10:57:57Z</time>
      </trkpt>
      <trkpt lat="48.78859" lon="2.07004">
        <ele>157</ele>
        <time>2021-05-14T10:58:28Z</time>
      </trkpt>
      <trkpt lat="48.78869" lon="2.06982">
        <ele>158</ele>
        <time>2021-05-14T10:58:44Z</time>
      </trkpt>
      <trkpt lat="48.78872" lon="2.06988">
        <ele>159</ele>
        <time>2021-05-14T10:58:53Z</time>
      </trkpt>
      <trkpt lat="48.78879" lon="2.06984">
        <ele>159</ele>
        <time>2021-05-14T10:59:18Z</time>
      </trkpt>
      <trkpt lat="48.78883" lon="2.06979">
        <ele>159</ele>
        <time>2021-05-14T10:59:24Z</time>
      </trkpt>
      <trkpt lat="48.7889" lon="2.06982">
        <ele>161</ele>
        <time>2021-05-14T10:59:37Z</time>
      </trkpt>
      <trkpt lat="48.789" lon="2.06995">
        <ele>162</ele>
        <time>2021-05-14T10:59:47Z</time>
      </trkpt>
      <trkpt lat="48.78905" lon="2.06999">
        <ele>162</ele>
        <time>2021-05-14T10:59:53Z</time>
      </trkpt>
      <trkpt lat="48.78909" lon="2.07003">
        <ele>162</ele>
        <time>2021-05-14T11:00:05Z</time>
      </trkpt>
      <trkpt lat="48.7891" lon="2.07014">
        <ele>162</ele>
        <time>2021-05-14T11:00:40Z</time>
      </trkpt>
      <trkpt lat="48.78916" lon="2.07005">
        <ele>162</ele>
        <time>2021-05-14T11:01:01Z</time>
      </trkpt>
      <trkpt lat="48.78923" lon="2.07006">
        <ele>162</ele>
        <time>2021-05-14T11:01:13Z</time>
      </trkpt>
      <trkpt lat="48.78942" lon="2.07032">
        <ele>162</ele>
        <time>2021-05-14T11:01:28Z</time>
      </trkpt>
      <trkpt lat="48.78964" lon="2.07052">
        <ele>163</ele>
        <time>2021-05-14T11:01:47Z</time>
      </trkpt>
      <trkpt lat="48.78991" lon="2.07093">
        <ele>163</ele>
        <time>2021-05-14T11:02:17Z</time>
      </trkpt>
      <trkpt lat="48.79013" lon="2.07124">
        <ele>164</ele>
        <time>2021-05-14T11:02:43Z</time>
      </trkpt>
      <trkpt lat="48.79022" lon="2.07143">
        <ele>164</ele>
        <time>2021-05-14T11:02:56Z</time>
      </trkpt>
      <trkpt lat="48.79051" lon="2.07159">
        <ele>165</ele>
        <time>2021-05-14T11:03:23Z</time>
      </trkpt>
      <trkpt lat="48.79067" lon="2.07151">
        <ele>165</ele>
        <time>2021-05-14T11:03:31Z</time>
      </trkpt>
      <trkpt lat="48.79089" lon="2.07139">
        <ele>165</ele>
        <time>2021-05-14T11:03:55Z</time>
      </trkpt>
      <trkpt lat="48.79095" lon="2.07128">
        <ele>165</ele>
        <time>2021-05-14T11:04:05Z</time>
      </trkpt>
      <trkpt lat="48.79111" lon="2.07079">
        <ele>165</ele>
        <time>2021-05-14T11:04:29Z</time>
      </trkpt>
      <trkpt lat="48.79105" lon="2.07071">
        <ele>165</ele>
        <time>2021-05-14T11:04:52Z</time>
      </trkpt>
      <trkpt lat="48.79099" lon="2.07068">
        <ele>165</ele>
        <time>2021-05-14T11:05:06Z</time>
      </trkpt>
      <trkpt lat="48.79094" lon="2.07064">
        <ele>165</ele>
        <time>2021-05-14T11:05:21Z</time>
      </trkpt>
      <trkpt lat="48.79097" lon="2.07071">
        <ele>165</ele>
        <time>2021-05-14T11:06:13Z</time>
      </trkpt>
      <trkpt lat="48.7913" lon="2.0707">
        <ele>165</ele>
        <time>2021-05-14T11:06:53Z</time>
      </trkpt>
      <trkpt lat="48.79137" lon="2.07074">
        <ele>165</ele>
        <time>2021-05-14T11:06:59Z</time>
      </trkpt>
      <trkpt lat="48.79144" lon="2.07075">
        <ele>165</ele>
        <time>2021-05-14T11:07:05Z</time>
      </trkpt>
      <trkpt lat="48.79152" lon="2.07079">
        <ele>165</ele>
        <time>2021-05-14T11:07:13Z</time>
      </trkpt>
      <trkpt lat="48.79165" lon="2.07081">
        <ele>165</ele>
        <time>2021-05-14T11:07:21Z</time>
      </trkpt>
      <trkpt lat="48.7917" lon="2.07087">
        <ele>165</ele>
        <time>2021-05-14T11:07:25Z</time>
      </trkpt>
      <trkpt lat="48.79188" lon="2.07096">
        <ele>165</ele>
        <time>2021-05-14T11:07:38Z</time>
      </trkpt>
      <trkpt lat="48.7923" lon="2.07108">
        <ele>165</ele>
        <time>2021-05-14T11:08:09Z</time>
      </trkpt>
      <trkpt lat="48.79236" lon="2.0711">
        <ele>165</ele>
        <time>2021-05-14T11:08:13Z</time>
      </trkpt>
      <trkpt lat="48.79242" lon="2.07108">
        <ele>165</ele>
        <time>2021-05-14T11:08:18Z</time>
      </trkpt>
      <trkpt lat="48.79247" lon="2.07108">
        <ele>165</ele>
        <time>2021-05-14T11:08:23Z</time>
      </trkpt>
      <trkpt lat="48.7928" lon="2.07122">
        <ele>164</ele>
        <time>2021-05-14T11:08:52Z</time>
      </trkpt>
      <trkpt lat="48.79285" lon="2.07121">
        <ele>164</ele>
        <time>2021-05-14T11:08:56Z</time>
      </trkpt>
      <trkpt lat="48.7929" lon="2.07129">
        <ele>164</ele>
        <time>2021-05-14T11:09:00Z</time>
      </trkpt>
      <trkpt lat="48.79328" lon="2.07143">
        <ele>164</ele>
        <time>2021-05-14T11:09:31Z</time>
      </trkpt>
      <trkpt lat="48.79351" lon="2.07149">
        <ele>164</ele>
        <time>2021-05-14T11:10:09Z</time>
      </trkpt>
      <trkpt lat="48.79362" lon="2.07153">
        <ele>164</ele>
        <time>2021-05-14T11:10:17Z</time>
      </trkpt>
      <trkpt lat="48.79397" lon="2.07175">
        <ele>165</ele>
        <time>2021-05-14T11:10:45Z</time>
      </trkpt>
      <trkpt lat="48.794" lon="2.07182">
        <ele>165</ele>
        <time>2021-05-14T11:10:50Z</time>
      </trkpt>
      <trkpt lat="48.79407" lon="2.07208">
        <ele>165</ele>
        <time>2021-05-14T11:11:03Z</time>
      </trkpt>
      <trkpt lat="48.79413" lon="2.07216">
        <ele>165</ele>
        <time>2021-05-14T11:11:12Z</time>
      </trkpt>
      <trkpt lat="48.79418" lon="2.07219">
        <ele>165</ele>
        <time>2021-05-14T11:11:18Z</time>
      </trkpt>
      <trkpt lat="48.79424" lon="2.07223">
        <ele>165</ele>
        <time>2021-05-14T11:11:22Z</time>
      </trkpt>
      <trkpt lat="48.79424" lon="2.07246">
        <ele>165</ele>
        <time>2021-05-14T11:11:35Z</time>
      </trkpt>
      <trkpt lat="48.79423" lon="2.07256">
        <ele>165</ele>
        <time>2021-05-14T11:11:41Z</time>
      </trkpt>
      <trkpt lat="48.79422" lon="2.07268">
        <ele>166</ele>
        <time>2021-05-14T11:11:50Z</time>
      </trkpt>
      <trkpt lat="48.79422" lon="2.07277">
        <ele>166</ele>
        <time>2021-05-14T11:11:57Z</time>
      </trkpt>
      <trkpt lat="48.79424" lon="2.07297">
        <ele>166</ele>
        <time>2021-05-14T11:12:08Z</time>
      </trkpt>
      <trkpt lat="48.79422" lon="2.07306">
        <ele>166</ele>
        <time>2021-05-14T11:12:12Z</time>
      </trkpt>
      <trkpt lat="48.79427" lon="2.07316">
        <ele>166</ele>
        <time>2021-05-14T11:12:21Z</time>
      </trkpt>
      <trkpt lat="48.79431" lon="2.07325">
        <ele>166</ele>
        <time>2021-05-14T11:12:34Z</time>
      </trkpt>
      <trkpt lat="48.79439" lon="2.07345">
        <ele>167</ele>
        <time>2021-05-14T11:13:00Z</time>
      </trkpt>
      <trkpt lat="48.79451" lon="2.07358">
        <ele>167</ele>
        <time>2021-05-14T11:13:08Z</time>
      </trkpt>
      <trkpt lat="48.79471" lon="2.07362">
        <ele>167</ele>
        <time>2021-05-14T11:13:38Z</time>
      </trkpt>
      <trkpt lat="48.79501" lon="2.07379">
        <ele>168</ele>
        <time>2021-05-14T11:13:57Z</time>
      </trkpt>
      <trkpt lat="48.79544" lon="2.07414">
        <ele>168</ele>
        <time>2021-05-14T11:14:36Z</time>
      </trkpt>
      <trkpt lat="48.79584" lon="2.07442">
        <ele>169</ele>
        <time>2021-05-14T11:15:00Z</time>
      </trkpt>
      <trkpt lat="48.7959" lon="2.07459">
        <ele>169</ele>
        <time>2021-05-14T11:15:44Z</time>
      </trkpt>
      <trkpt lat="48.79605" lon="2.07447">
        <ele>169</ele>
        <time>2021-05-14T11:16:14Z</time>
      </trkpt>
      <trkpt lat="48.7963" lon="2.07464">
        <ele>170</ele>
        <time>2021-05-14T11:16:45Z</time>
      </trkpt>
      <trkpt lat="48.79652" lon="2.07486">
        <ele>171</ele>
        <time>2021-05-14T11:17:07Z</time>
      </trkpt>
      <trkpt lat="48.79658" lon="2.07493">
        <ele>171</ele>
        <time>2021-05-14T11:17:21Z</time>
      </trkpt>
      <trkpt lat="48.79662" lon="2.07505">
        <ele>171</ele>
        <time>2021-05-14T11:17:29Z</time>
      </trkpt>
      <trkpt lat="48.7969" lon="2.07543">
        <ele>171</ele>
        <time>2021-05-14T11:18:28Z</time>
      </trkpt>
      <trkpt lat="48.79703" lon="2.07555">
        <ele>171</ele>
        <time>2021-05-14T11:18:39Z</time>
      </trkpt>
      <trkpt lat="48.79706" lon="2.07592">
        <ele>171</ele>
        <time>2021-05-14T11:19:09Z</time>
      </trkpt>
      <trkpt lat="48.79664" lon="2.07645">
        <ele>170</ele>
        <time>2021-05-14T11:20:22Z</time>
      </trkpt>
      <trkpt lat="48.79651" lon="2.07738">
        <ele>169</ele>
        <time>2021-05-14T11:21:12Z</time>
      </trkpt>
      <trkpt lat="48.7966" lon="2.07842">
        <ele>169</ele>
        <time>2021-05-14T11:21:54Z</time>
      </trkpt>
      <trkpt lat="48.79668" lon="2.07875">
        <ele>169</ele>
        <time>2021-05-14T11:22:05Z</time>
      </trkpt>
      <trkpt lat="48.79666" lon="2.07925">
        <ele>170</ele>
        <time>2021-05-14T11:22:19Z</time>
      </trkpt>
      <trkpt lat="48.79645" lon="2.08001">
        <ele>170</ele>
        <time>2021-05-14T11:22:53Z</time>
      </trkpt>
      <trkpt lat="48.79629" lon="2.08061">
        <ele>170</ele>
        <time>2021-05-14T11:23:29Z</time>
      </trkpt>
      <trkpt lat="48.79611" lon="2.08109">
        <ele>170</ele>
        <time>2021-05-14T11:23:59Z</time>
      </trkpt>
      <trkpt lat="48.79611" lon="2.08118">
        <ele>170</ele>
        <time>2021-05-14T11:24:04Z</time>
      </trkpt>
      <trkpt lat="48.79601" lon="2.08142">
        <ele>169</ele>
        <time>2021-05-14T11:24:19Z</time>
      </trkpt>
      <trkpt lat="48.79595" lon="2.08188">
        <ele>169</ele>
        <time>2021-05-14T11:24:44Z</time>
      </trkpt>
      <trkpt lat="48.79586" lon="2.08204">
        <ele>169</ele>
        <time>2021-05-14T11:24:56Z</time>
      </trkpt>
      <trkpt lat="48.79581" lon="2.08207">
        <ele>169</ele>
        <time>2021-05-14T11:25:00Z</time>
      </trkpt>
      <trkpt lat="48.79559" lon="2.0823">
        <ele>168</ele>
        <time>2021-05-14T11:25:23Z</time>
      </trkpt>
      <trkpt lat="48.79552" lon="2.08239">
        <ele>167</ele>
        <time>2021-05-14T11:25:34Z</time>
      </trkpt>
      <trkpt lat="48.79546" lon="2.08256">
        <ele>166</ele>
        <time>2021-05-14T11:25:46Z</time>
      </trkpt>
      <trkpt lat="48.7954" lon="2.08267">
        <ele>167</ele>
        <time>2021-05-14T11:25:59Z</time>
      </trkpt>
      <trkpt lat="48.79542" lon="2.08327">
        <ele>168</ele>
        <time>2021-05-14T11:26:33Z</time>
      </trkpt>
      <trkpt lat="48.79544" lon="2.08349">
        <ele>168</ele>
        <time>2021-05-14T11:26:44Z</time>
      </trkpt>
      <trkpt lat="48.79535" lon="2.08428">
        <ele>167</ele>
        <time>2021-05-14T11:27:21Z</time>
      </trkpt>
      <trkpt lat="48.79533" lon="2.0845">
        <ele>167</ele>
        <time>2021-05-14T11:27:30Z</time>
      </trkpt>
      <trkpt lat="48.79511" lon="2.08507">
        <ele>167</ele>
        <time>2021-05-14T11:28:01Z</time>
      </trkpt>
      <trkpt lat="48.79507" lon="2.08511">
        <ele>167</ele>
        <time>2021-05-14T11:28:06Z</time>
      </trkpt>
      <trkpt lat="48.79495" lon="2.08541">
        <ele>166</ele>
        <time>2021-05-14T11:28:28Z</time>
      </trkpt>
      <trkpt lat="48.79481" lon="2.08563">
        <ele>166</ele>
        <time>2021-05-14T11:28:42Z</time>
      </trkpt>
      <trkpt lat="48.79473" lon="2.08574">
        <ele>165</ele>
        <time>2021-05-14T11:28:53Z</time>
      </trkpt>
      <trkpt lat="48.79467" lon="2.0858">
        <ele>165</ele>
        <time>2021-05-14T11:29:00Z</time>
      </trkpt>
      <trkpt lat="48.7946" lon="2.08581">
        <ele>165</ele>
        <time>2021-05-14T11:29:05Z</time>
      </trkpt>
      <trkpt lat="48.79455" lon="2.08584">
        <ele>165</ele>
        <time>2021-05-14T11:29:09Z</time>
      </trkpt>
      <trkpt lat="48.79451" lon="2.08592">
        <ele>165</ele>
        <time>2021-05-14T11:29:12Z</time>
      </trkpt>
      <trkpt lat="48.79427" lon="2.08603">
        <ele>165</ele>
        <time>2021-05-14T11:29:32Z</time>
      </trkpt>
      <trkpt lat="48.79418" lon="2.08604">
        <ele>165</ele>
        <time>2021-05-14T11:29:44Z</time>
      </trkpt>
      <trkpt lat="48.79414" lon="2.0861">
        <ele>165</ele>
        <time>2021-05-14T11:29:48Z</time>
      </trkpt>
      <trkpt lat="48.79408" lon="2.08609">
        <ele>165</ele>
        <time>2021-05-14T11:29:54Z</time>
      </trkpt>
      <trkpt lat="48.79403" lon="2.08614">
        <ele>164</ele>
        <time>2021-05-14T11:30:00Z</time>
      </trkpt>
      <trkpt lat="48.79397" lon="2.08616">
        <ele>164</ele>
        <time>2021-05-14T11:30:04Z</time>
      </trkpt>
      <trkpt lat="48.79392" lon="2.0862">
        <ele>165</ele>
        <time>2021-05-14T11:30:08Z</time>
      </trkpt>
      <trkpt lat="48.79388" lon="2.08628">
        <ele>164</ele>
        <time>2021-05-14T11:30:13Z</time>
      </trkpt>
      <trkpt lat="48.79384" lon="2.08634">
        <ele>165</ele>
        <time>2021-05-14T11:30:17Z</time>
      </trkpt>
      <trkpt lat="48.79378" lon="2.08652">
        <ele>165</ele>
        <time>2021-05-14T11:30:27Z</time>
      </trkpt>
      <trkpt lat="48.79372" lon="2.0868">
        <ele>165</ele>
        <time>2021-05-14T11:30:40Z</time>
      </trkpt>
      <trkpt lat="48.79361" lon="2.08702">
        <ele>165</ele>
        <time>2021-05-14T11:30:54Z</time>
      </trkpt>
      <trkpt lat="48.79346" lon="2.08717">
        <ele>165</ele>
        <time>2021-05-14T11:31:12Z</time>
      </trkpt>
      <trkpt lat="48.79342" lon="2.08724">
        <ele>165</ele>
        <time>2021-05-14T11:31:16Z</time>
      </trkpt>
      <trkpt lat="48.79337" lon="2.08736">
        <ele>165</ele>
        <time>2021-05-14T11:31:24Z</time>
      </trkpt>
      <trkpt lat="48.79333" lon="2.08743">
        <ele>165</ele>
        <time>2021-05-14T11:31:28Z</time>
      </trkpt>
      <trkpt lat="48.79329" lon="2.08759">
        <ele>165</ele>
        <time>2021-05-14T11:31:39Z</time>
      </trkpt>
      <trkpt lat="48.79305" lon="2.08797">
        <ele>164</ele>
        <time>2021-05-14T11:32:13Z</time>
      </trkpt>
      <trkpt lat="48.793" lon="2.08806">
        <ele>164</ele>
        <time>2021-05-14T11:32:21Z</time>
      </trkpt>
      <trkpt lat="48.793" lon="2.08833">
        <ele>164</ele>
        <time>2021-05-14T11:32:36Z</time>
      </trkpt>
      <trkpt lat="48.79301" lon="2.08881">
        <ele>165</ele>
        <time>2021-05-14T11:32:52Z</time>
      </trkpt>
      <trkpt lat="48.79298" lon="2.08901">
        <ele>165</ele>
        <time>2021-05-14T11:32:58Z</time>
      </trkpt>
      <trkpt lat="48.79302" lon="2.08946">
        <ele>167</ele>
        <time>2021-05-14T11:33:18Z</time>
      </trkpt>
      <trkpt lat="48.79305" lon="2.08962">
        <ele>167</ele>
        <time>2021-05-14T11:33:29Z</time>
      </trkpt>
      <trkpt lat="48.79312" lon="2.0897">
        <ele>167</ele>
        <time>2021-05-14T11:33:41Z</time>
      </trkpt>
      <trkpt lat="48.7932" lon="2.08973">
        <ele>167</ele>
        <time>2021-05-14T11:33:58Z</time>
      </trkpt>
      <trkpt lat="48.79327" lon="2.08994">
        <ele>167</ele>
        <time>2021-05-14T11:34:14Z</time>
      </trkpt>
      <trkpt lat="48.79332" lon="2.09005">
        <ele>166</ele>
        <time>2021-05-14T11:34:26Z</time>
      </trkpt>
      <trkpt lat="48.79337" lon="2.09012">
        <ele>167</ele>
        <time>2021-05-14T11:34:34Z</time>
      </trkpt>
      <trkpt lat="48.79346" lon="2.09017">
        <ele>168</ele>
        <time>2021-05-14T11:34:51Z</time>
      </trkpt>
      <trkpt lat="48.79359" lon="2.09009">
        <ele>167</ele>
        <time>2021-05-14T11:35:30Z</time>
      </trkpt>
      <trkpt lat="48.79373" lon="2.09065">
        <ele>166</ele>
        <time>2021-05-14T11:37:08Z</time>
      </trkpt>
      <trkpt lat="48.79369" lon="2.0909">
        <ele>167</ele>
        <time>2021-05-14T11:37:40Z</time>
      </trkpt>
      <trkpt lat="48.79368" lon="2.09101">
        <ele>167</ele>
        <time>2021-05-14T11:37:47Z</time>
      </trkpt>
      <trkpt lat="48.79369" lon="2.09156">
        <ele>167</ele>
        <time>2021-05-14T11:38:17Z</time>
      </trkpt>
      <trkpt lat="48.79368" lon="2.09214">
        <ele>169</ele>
        <time>2021-05-14T11:38:46Z</time>
      </trkpt>
      <trkpt lat="48.79365" lon="2.09222">
        <ele>169</ele>
        <time>2021-05-14T11:38:51Z</time>
      </trkpt>
      <trkpt lat="48.79367" lon="2.09239">
        <ele>170</ele>
        <time>2021-05-14T11:39:01Z</time>
      </trkpt>
      <trkpt lat="48.79365" lon="2.09248">
        <ele>170</ele>
        <time>2021-05-14T11:39:06Z</time>
      </trkpt>
      <trkpt lat="48.79363" lon="2.09256">
        <ele>170</ele>
        <time>2021-05-14T11:39:10Z</time>
      </trkpt>
      <trkpt lat="48.79366" lon="2.09287">
        <ele>171</ele>
        <time>2021-05-14T11:39:31Z</time>
      </trkpt>
      <trkpt lat="48.79367" lon="2.09307">
        <ele>171</ele>
        <time>2021-05-14T11:39:41Z</time>
      </trkpt>
      <trkpt lat="48.7937" lon="2.09328">
        <ele>171</ele>
        <time>2021-05-14T11:39:52Z</time>
      </trkpt>
      <trkpt lat="48.7937" lon="2.09383">
        <ele>171</ele>
        <time>2021-05-14T11:40:20Z</time>
      </trkpt>
      <trkpt lat="48.79371" lon="2.09391">
        <ele>170</ele>
        <time>2021-05-14T11:40:26Z</time>
      </trkpt>
      <trkpt lat="48.79372" lon="2.09401">
        <ele>171</ele>
        <time>2021-05-14T11:40:31Z</time>
      </trkpt>
      <trkpt lat="48.79373" lon="2.09411">
        <ele>171</ele>
        <time>2021-05-14T11:40:35Z</time>
      </trkpt>
      <trkpt lat="48.79388" lon="2.0946">
        <ele>170</ele>
        <time>2021-05-14T11:41:06Z</time>
      </trkpt>
      <trkpt lat="48.79404" lon="2.09511">
        <ele>169</ele>
        <time>2021-05-14T11:41:40Z</time>
      </trkpt>
      <trkpt lat="48.79405" lon="2.0952">
        <ele>169</ele>
        <time>2021-05-14T11:41:46Z</time>
      </trkpt>
      <trkpt lat="48.79404" lon="2.09573">
        <ele>170</ele>
        <time>2021-05-14T11:42:15Z</time>
      </trkpt>
      <trkpt lat="48.79412" lon="2.09625">
        <ele>170</ele>
        <time>2021-05-14T11:42:47Z</time>
      </trkpt>
      <trkpt lat="48.79405" lon="2.0966">
        <ele>170</ele>
        <time>2021-05-14T11:43:07Z</time>
      </trkpt>
      <trkpt lat="48.7943" lon="2.09679">
        <ele>168</ele>
        <time>2021-05-14T11:43:41Z</time>
      </trkpt>
      <trkpt lat="48.79452" lon="2.09711">
        <ele>166</ele>
        <time>2021-05-14T11:44:06Z</time>
      </trkpt>
      <trkpt lat="48.79471" lon="2.09767">
        <ele>166</ele>
        <time>2021-05-14T11:44:38Z</time>
      </trkpt>
      <trkpt lat="48.79479" lon="2.0983">
        <ele>164</ele>
        <time>2021-05-14T11:45:10Z</time>
      </trkpt>
      <trkpt lat="48.79483" lon="2.0985">
        <ele>164</ele>
        <time>2021-05-14T11:45:27Z</time>
      </trkpt>
      <trkpt lat="48.79485" lon="2.09861">
        <ele>163</ele>
        <time>2021-05-14T11:45:38Z</time>
      </trkpt>
      <trkpt lat="48.79487" lon="2.09869">
        <ele>163</ele>
        <time>2021-05-14T11:45:44Z</time>
      </trkpt>
      <trkpt lat="48.79485" lon="2.0989">
        <ele>164</ele>
        <time>2021-05-14T11:45:58Z</time>
      </trkpt>
      <trkpt lat="48.79487" lon="2.09901">
        <ele>163</ele>
        <time>2021-05-14T11:46:05Z</time>
      </trkpt>
      <trkpt lat="48.79486" lon="2.09914">
        <ele>163</ele>
        <time>2021-05-14T11:46:16Z</time>
      </trkpt>
      <trkpt lat="48.79487" lon="2.09926">
        <ele>162</ele>
        <time>2021-05-14T11:46:23Z</time>
      </trkpt>
      <trkpt lat="48.79484" lon="2.09937">
        <ele>161</ele>
        <time>2021-05-14T11:46:33Z</time>
      </trkpt>
      <trkpt lat="48.79473" lon="2.09992">
        <ele>160</ele>
        <time>2021-05-14T11:46:51Z</time>
      </trkpt>
      <trkpt lat="48.79468" lon="2.10006">
        <ele>157</ele>
        <time>2021-05-14T11:47:03Z</time>
      </trkpt>
      <trkpt lat="48.79465" lon="2.1002">
        <ele>156</ele>
        <time>2021-05-14T11:47:19Z</time>
      </trkpt>
      <trkpt lat="48.79461" lon="2.10026">
        <ele>156</ele>
        <time>2021-05-14T11:47:23Z</time>
      </trkpt>
      <trkpt lat="48.79456" lon="2.10051">
        <ele>156</ele>
        <time>2021-05-14T11:47:31Z</time>
      </trkpt>
      <trkpt lat="48.79456" lon="2.1007">
        <ele>156</ele>
        <time>2021-05-14T11:47:42Z</time>
      </trkpt>
      <trkpt lat="48.79453" lon="2.10075">
        <ele>155</ele>
        <time>2021-05-14T11:48:09Z</time>
      </trkpt>
      <trkpt lat="48.79448" lon="2.10086">
        <ele>152</ele>
        <time>2021-05-14T11:48:36Z</time>
      </trkpt>
      <trkpt lat="48.79443" lon="2.10089">
        <ele>151</ele>
        <time>2021-05-14T11:49:01Z</time>
      </trkpt>
      <trkpt lat="48.79444" lon="2.10097">
        <ele>150</ele>
        <time>2021-05-14T11:49:06Z</time>
      </trkpt>
      <trkpt lat="48.79442" lon="2.10108">
        <ele>149</ele>
        <time>2021-05-14T11:49:14Z</time>
      </trkpt>
      <trkpt lat="48.79441" lon="2.1012">
        <ele>147</ele>
        <time>2021-05-14T11:49:25Z</time>
      </trkpt>
      <trkpt lat="48.79443" lon="2.1013">
        <ele>145</ele>
        <time>2021-05-14T11:49:35Z</time>
      </trkpt>
      <trkpt lat="48.79448" lon="2.10137">
        <ele>145</ele>
        <time>2021-05-14T11:50:35Z</time>
      </trkpt>
      <trkpt lat="48.79441" lon="2.10148">
        <ele>145</ele>
        <time>2021-05-14T11:51:25Z</time>
      </trkpt>
      <trkpt lat="48.79437" lon="2.10154">
        <ele>145</ele>
        <time>2021-05-14T11:51:29Z</time>
      </trkpt>
      <trkpt lat="48.79435" lon="2.10162">
        <ele>145</ele>
        <time>2021-05-14T11:51:34Z</time>
      </trkpt>
      <trkpt lat="48.79435" lon="2.10171">
        <ele>145</ele>
        <time>2021-05-14T11:51:37Z</time>
      </trkpt>
      <trkpt lat="48.79435" lon="2.1018">
        <ele>146</ele>
        <time>2021-05-14T11:51:42Z</time>
      </trkpt>
      <trkpt lat="48.79433" lon="2.10189">
        <ele>147</ele>
        <time>2021-05-14T11:51:50Z</time>
      </trkpt>
      <trkpt lat="48.79435" lon="2.10202">
        <ele>148</ele>
        <time>2021-05-14T11:52:01Z</time>
      </trkpt>
      <trkpt lat="48.79441" lon="2.10227">
        <ele>146</ele>
        <time>2021-05-14T11:52:14Z</time>
      </trkpt>
      <trkpt lat="48.79469" lon="2.10257">
        <ele>141</ele>
        <time>2021-05-14T11:52:45Z</time>
      </trkpt>
      <trkpt lat="48.79489" lon="2.10293">
        <ele>137</ele>
        <time>2021-05-14T11:53:19Z</time>
      </trkpt>
      <trkpt lat="48.79506" lon="2.10317">
        <ele>134</ele>
        <time>2021-05-14T11:53:37Z</time>
      </trkpt>
      <trkpt lat="48.79507" lon="2.10331">
        <ele>133</ele>
        <time>2021-05-14T11:53:44Z</time>
      </trkpt>
      <trkpt lat="48.79506" lon="2.10341">
        <ele>133</ele>
        <time>2021-05-14T11:53:48Z</time>
      </trkpt>
      <trkpt lat="48.79507" lon="2.10351">
        <ele>133</ele>
        <time>2021-05-14T11:53:53Z</time>
      </trkpt>
      <trkpt lat="48.79499" lon="2.10382">
        <ele>135</ele>
        <time>2021-05-14T11:54:14Z</time>
      </trkpt>
      <trkpt lat="48.79496" lon="2.10394">
        <ele>137</ele>
        <time>2021-05-14T11:54:26Z</time>
      </trkpt>
      <trkpt lat="48.79495" lon="2.10406">
        <ele>138</ele>
        <time>2021-05-14T11:54:36Z</time>
      </trkpt>
      <trkpt lat="48.795" lon="2.10424">
        <ele>141</ele>
        <time>2021-05-14T11:54:54Z</time>
      </trkpt>
      <trkpt lat="48.79513" lon="2.1046">
        <ele>145</ele>
        <time>2021-05-14T11:55:24Z</time>
      </trkpt>
      <trkpt lat="48.79513" lon="2.10472">
        <ele>146</ele>
        <time>2021-05-14T11:55:31Z</time>
      </trkpt>
      <trkpt lat="48.79506" lon="2.10485">
        <ele>147</ele>
        <time>2021-05-14T11:55:43Z</time>
      </trkpt>
      <trkpt lat="48.7949" lon="2.10491">
        <ele>149</ele>
        <time>2021-05-14T11:56:01Z</time>
      </trkpt>
      <trkpt lat="48.79486" lon="2.10493">
        <ele>150</ele>
        <time>2021-05-14T11:56:05Z</time>
      </trkpt>
      <trkpt lat="48.79479" lon="2.10493">
        <ele>151</ele>
        <time>2021-05-14T11:56:14Z</time>
      </trkpt>
      <trkpt lat="48.79466" lon="2.10499">
        <ele>153</ele>
        <time>2021-05-14T11:56:35Z</time>
      </trkpt>
      <trkpt lat="48.7944" lon="2.10513">
        <ele>157</ele>
        <time>2021-05-14T11:57:16Z</time>
      </trkpt>
      <trkpt lat="48.79436" lon="2.10515">
        <ele>158</ele>
        <time>2021-05-14T11:57:21Z</time>
      </trkpt>
      <trkpt lat="48.79429" lon="2.10521">
        <ele>160</ele>
        <time>2021-05-14T11:57:31Z</time>
      </trkpt>
      <trkpt lat="48.79402" lon="2.10535">
        <ele>163</ele>
        <time>2021-05-14T11:58:03Z</time>
      </trkpt>
      <trkpt lat="48.79397" lon="2.10535">
        <ele>164</ele>
        <time>2021-05-14T11:58:09Z</time>
      </trkpt>
      <trkpt lat="48.79391" lon="2.10539">
        <ele>165</ele>
        <time>2021-05-14T11:58:21Z</time>
      </trkpt>
      <trkpt lat="48.79386" lon="2.10548">
        <ele>166</ele>
        <time>2021-05-14T11:58:39Z</time>
      </trkpt>
      <trkpt lat="48.79378" lon="2.10551">
        <ele>167</ele>
        <time>2021-05-14T11:58:53Z</time>
      </trkpt>
      <trkpt lat="48.79377" lon="2.10562">
        <ele>166</ele>
        <time>2021-05-14T11:59:08Z</time>
      </trkpt>
      <trkpt lat="48.79378" lon="2.1057">
        <ele>166</ele>
        <time>2021-05-14T11:59:12Z</time>
      </trkpt>
      <trkpt lat="48.79374" lon="2.10578">
        <ele>165</ele>
        <time>2021-05-14T11:59:20Z</time>
      </trkpt>
      <trkpt lat="48.79359" lon="2.10587">
        <ele>166</ele>
        <time>2021-05-14T11:59:35Z</time>
      </trkpt>
      <trkpt lat="48.79355" lon="2.10593">
        <ele>166</ele>
        <time>2021-05-14T11:59:40Z</time>
      </trkpt>
      <trkpt lat="48.79352" lon="2.106">
        <ele>166</ele>
        <time>2021-05-14T11:59:45Z</time>
      </trkpt>
      <trkpt lat="48.7935" lon="2.10609">
        <ele>165</ele>
        <time>2021-05-14T11:59:55Z</time>
      </trkpt>
      <trkpt lat="48.79355" lon="2.10626">
        <ele>165</ele>
        <time>2021-05-14T12:00:05Z</time>
      </trkpt>
      <trkpt lat="48.79358" lon="2.10649">
        <ele>165</ele>
        <time>2021-05-14T12:00:14Z</time>
      </trkpt>
      <trkpt lat="48.79352" lon="2.10658">
        <ele>165</ele>
        <time>2021-05-14T12:00:23Z</time>
      </trkpt>
      <trkpt lat="48.79348" lon="2.10661">
        <ele>166</ele>
        <time>2021-05-14T12:00:31Z</time>
      </trkpt>
      <trkpt lat="48.79348" lon="2.1067">
        <ele>166</ele>
        <time>2021-05-14T12:00:38Z</time>
      </trkpt>
      <trkpt lat="48.79354" lon="2.1069">
        <ele>167</ele>
        <time>2021-05-14T12:00:55Z</time>
      </trkpt>
      <trkpt lat="48.7936" lon="2.10697">
        <ele>167</ele>
        <time>2021-05-14T12:01:00Z</time>
      </trkpt>
      <trkpt lat="48.79375" lon="2.10715">
        <ele>167</ele>
        <time>2021-05-14T12:01:19Z</time>
      </trkpt>
      <trkpt lat="48.79384" lon="2.10724">
        <ele>167</ele>
        <time>2021-05-14T12:01:33Z</time>
      </trkpt>
      <trkpt lat="48.79393" lon="2.10752">
        <ele>168</ele>
        <time>2021-05-14T12:01:53Z</time>
      </trkpt>
      <trkpt lat="48.794" lon="2.10756">
        <ele>168</ele>
        <time>2021-05-14T12:02:05Z</time>
      </trkpt>
      <trkpt lat="48.79413" lon="2.10773">
        <ele>168</ele>
        <time>2021-05-14T12:02:17Z</time>
      </trkpt>
      <trkpt lat="48.7942" lon="2.10777">
        <ele>168</ele>
        <time>2021-05-14T12:02:21Z</time>
      </trkpt>
      <trkpt lat="48.79431" lon="2.10785">
        <ele>168</ele>
        <time>2021-05-14T12:02:36Z</time>
      </trkpt>
      <trkpt lat="48.79438" lon="2.10792">
        <ele>168</ele>
        <time>2021-05-14T12:02:48Z</time>
      </trkpt>
      <trkpt lat="48.79446" lon="2.10801">
        <ele>167</ele>
        <time>2021-05-14T12:03:05Z</time>
      </trkpt>
      <trkpt lat="48.79452" lon="2.10807">
        <ele>167</ele>
        <time>2021-05-14T12:03:10Z</time>
      </trkpt>
      <trkpt lat="48.79467" lon="2.10819">
        <ele>166</ele>
        <time>2021-05-14T12:03:58Z</time>
      </trkpt>
      <trkpt lat="48.79477" lon="2.10816">
        <ele>165</ele>
        <time>2021-05-14T12:06:06Z</time>
      </trkpt>
      <trkpt lat="48.79482" lon="2.10822">
        <ele>165</ele>
        <time>2021-05-14T12:06:09Z</time>
      </trkpt>
      <trkpt lat="48.79483" lon="2.10812">
        <ele>165</ele>
        <time>2021-05-14T12:06:25Z</time>
      </trkpt>
      <trkpt lat="48.79474" lon="2.10814">
        <ele>165</ele>
        <time>2021-05-14T12:06:37Z</time>
      </trkpt>
      <trkpt lat="48.79468" lon="2.10812">
        <ele>166</ele>
        <time>2021-05-14T12:06:43Z</time>
      </trkpt>
      <trkpt lat="48.79459" lon="2.10814">
        <ele>166</ele>
        <time>2021-05-14T12:06:56Z</time>
      </trkpt>
      <trkpt lat="48.79442" lon="2.10828">
        <ele>166</ele>
        <time>2021-05-14T12:07:13Z</time>
      </trkpt>
      <trkpt lat="48.79437" lon="2.10831">
        <ele>166</ele>
        <time>2021-05-14T12:07:16Z</time>
      </trkpt>
      <trkpt lat="48.79432" lon="2.10839">
        <ele>166</ele>
        <time>2021-05-14T12:07:28Z</time>
      </trkpt>
      <trkpt lat="48.79419" lon="2.10855">
        <ele>166</ele>
        <time>2021-05-14T12:07:44Z</time>
      </trkpt>
      <trkpt lat="48.79407" lon="2.10867">
        <ele>167</ele>
        <time>2021-05-14T12:08:03Z</time>
      </trkpt>
      <trkpt lat="48.79379" lon="2.109">
        <ele>166</ele>
        <time>2021-05-14T12:08:40Z</time>
      </trkpt>
      <trkpt lat="48.79363" lon="2.10923">
        <ele>165</ele>
        <time>2021-05-14T12:08:54Z</time>
      </trkpt>
      <trkpt lat="48.79356" lon="2.10941">
        <ele>165</ele>
        <time>2021-05-14T12:09:01Z</time>
      </trkpt>
      <trkpt lat="48.79349" lon="2.10986">
        <ele>163</ele>
        <time>2021-05-14T12:09:17Z</time>
      </trkpt>
      <trkpt lat="48.79352" lon="2.11008">
        <ele>162</ele>
        <time>2021-05-14T12:09:31Z</time>
      </trkpt>
      <trkpt lat="48.79359" lon="2.11028">
        <ele>160</ele>
        <time>2021-05-14T12:09:44Z</time>
      </trkpt>
      <trkpt lat="48.79355" lon="2.11052">
        <ele>159</ele>
        <time>2021-05-14T12:09:57Z</time>
      </trkpt>
      <trkpt lat="48.79345" lon="2.11069">
        <ele>158</ele>
        <time>2021-05-14T12:10:08Z</time>
      </trkpt>
      <trkpt lat="48.79316" lon="2.11099">
        <ele>155</ele>
        <time>2021-05-14T12:10:38Z</time>
      </trkpt>
      <trkpt lat="48.79309" lon="2.11129">
        <ele>152</ele>
        <time>2021-05-14T12:11:04Z</time>
      </trkpt>
      <trkpt lat="48.79305" lon="2.1116">
        <ele>151</ele>
        <time>2021-05-14T12:11:19Z</time>
      </trkpt>
      <trkpt lat="48.79308" lon="2.1117">
        <ele>150</ele>
        <time>2021-05-14T12:11:26Z</time>
      </trkpt>
      <trkpt lat="48.79301" lon="2.11183">
        <ele>149</ele>
        <time>2021-05-14T12:11:35Z</time>
      </trkpt>
      <trkpt lat="48.79302" lon="2.11199">
        <ele>148</ele>
        <time>2021-05-14T12:11:47Z</time>
      </trkpt>
      <trkpt lat="48.79297" lon="2.11207">
        <ele>147</ele>
        <time>2021-05-14T12:11:54Z</time>
      </trkpt>
      <trkpt lat="48.79288" lon="2.11217">
        <ele>146</ele>
        <time>2021-05-14T12:12:04Z</time>
      </trkpt>
      <trkpt lat="48.79284" lon="2.11226">
        <ele>145</ele>
        <time>2021-05-14T12:12:11Z</time>
      </trkpt>
      <trkpt lat="48.79286" lon="2.11253">
        <ele>144</ele>
        <time>2021-05-14T12:12:26Z</time>
      </trkpt>
      <trkpt lat="48.7927" lon="2.11324">
        <ele>141</ele>
        <time>2021-05-14T12:12:58Z</time>
      </trkpt>
      <trkpt lat="48.79266" lon="2.11333">
        <ele>140</ele>
        <time>2021-05-14T12:13:03Z</time>
      </trkpt>
      <trkpt lat="48.79264" lon="2.1134">
        <ele>139</ele>
        <time>2021-05-14T12:13:11Z</time>
      </trkpt>
      <trkpt lat="48.79259" lon="2.11357">
        <ele>138</ele>
        <time>2021-05-14T12:13:22Z</time>
      </trkpt>
      <trkpt lat="48.79256" lon="2.11379">
        <ele>136</ele>
        <time>2021-05-14T12:13:41Z</time>
      </trkpt>
      <trkpt lat="48.79253" lon="2.11389">
        <ele>136</ele>
        <time>2021-05-14T12:13:46Z</time>
      </trkpt>
      <trkpt lat="48.79247" lon="2.11452">
        <ele>133</ele>
        <time>2021-05-14T12:14:19Z</time>
      </trkpt>
      <trkpt lat="48.79249" lon="2.11488">
        <ele>132</ele>
        <time>2021-05-14T12:14:37Z</time>
      </trkpt>
      <trkpt lat="48.79253" lon="2.11486">
        <ele>133</ele>
        <time>2021-05-14T12:16:55Z</time>
      </trkpt>
      <trkpt lat="48.79259" lon="2.11501">
        <ele>132</ele>
        <time>2021-05-14T12:17:31Z</time>
      </trkpt>
      <trkpt lat="48.79275" lon="2.11508">
        <ele>131</ele>
        <time>2021-05-14T12:17:52Z</time>
      </trkpt>
      <trkpt lat="48.79291" lon="2.1152">
        <ele>131</ele>
        <time>2021-05-14T12:18:15Z</time>
      </trkpt>
      <trkpt lat="48.79306" lon="2.11524">
        <ele>131</ele>
        <time>2021-05-14T12:18:41Z</time>
      </trkpt>
      <trkpt lat="48.79343" lon="2.1151">
        <ele>129</ele>
        <time>2021-05-14T12:19:18Z</time>
      </trkpt>
      <trkpt lat="48.79324" lon="2.11525">
        <ele>131</ele>
        <time>2021-05-14T12:20:19Z</time>
      </trkpt>
      <trkpt lat="48.79308" lon="2.11507">
        <ele>132</ele>
        <time>2021-05-14T12:20:52Z</time>
      </trkpt>
      <trkpt lat="48.79277" lon="2.11497">
        <ele>133</ele>
        <time>2021-05-14T12:21:13Z</time>
      </trkpt>
      <trkpt lat="48.79263" lon="2.11496">
        <ele>135</ele>
        <time>2021-05-14T12:21:25Z</time>
      </trkpt>
      <trkpt lat="48.79257" lon="2.11549">
        <ele>137</ele>
        <time>2021-05-14T12:21:53Z</time>
      </trkpt>
      <trkpt lat="48.79253" lon="2.11594">
        <ele>141</ele>
        <time>2021-05-14T12:22:27Z</time>
      </trkpt>
      <trkpt lat="48.79253" lon="2.11601">
        <ele>142</ele>
        <time>2021-05-14T12:22:33Z</time>
      </trkpt>
      <trkpt lat="48.79251" lon="2.11613">
        <ele>144</ele>
        <time>2021-05-14T12:22:49Z</time>
      </trkpt>
      <trkpt lat="48.79247" lon="2.11626">
        <ele>145</ele>
        <time>2021-05-14T12:23:01Z</time>
      </trkpt>
      <trkpt lat="48.79242" lon="2.11647">
        <ele>146</ele>
        <time>2021-05-14T12:23:15Z</time>
      </trkpt>
      <trkpt lat="48.79243" lon="2.11664">
        <ele>147</ele>
        <time>2021-05-14T12:23:31Z</time>
      </trkpt>
      <trkpt lat="48.79241" lon="2.11677">
        <ele>148</ele>
        <time>2021-05-14T12:23:40Z</time>
      </trkpt>
      <trkpt lat="48.79239" lon="2.11704">
        <ele>148</ele>
        <time>2021-05-14T12:23:58Z</time>
      </trkpt>
      <trkpt lat="48.79237" lon="2.11712">
        <ele>149</ele>
        <time>2021-05-14T12:24:04Z</time>
      </trkpt>
      <trkpt lat="48.7923" lon="2.11764">
        <ele>149</ele>
        <time>2021-05-14T12:24:35Z</time>
      </trkpt>
      <trkpt lat="48.79225" lon="2.11776">
        <ele>149</ele>
        <time>2021-05-14T12:24:44Z</time>
      </trkpt>
      <trkpt lat="48.79227" lon="2.11795">
        <ele>149</ele>
        <time>2021-05-14T12:24:54Z</time>
      </trkpt>
      <trkpt lat="48.79226" lon="2.11803">
        <ele>149</ele>
        <time>2021-05-14T12:24:58Z</time>
      </trkpt>
      <trkpt lat="48.79222" lon="2.11814">
        <ele>148</ele>
        <time>2021-05-14T12:25:41Z</time>
      </trkpt>
      <trkpt lat="48.79215" lon="2.11823">
        <ele>150</ele>
        <time>2021-05-14T12:25:56Z</time>
      </trkpt>
      <trkpt lat="48.79211" lon="2.11833">
        <ele>150</ele>
        <time>2021-05-14T12:26:04Z</time>
      </trkpt>
      <trkpt lat="48.79208" lon="2.11854">
        <ele>150</ele>
        <time>2021-05-14T12:26:19Z</time>
      </trkpt>
      <trkpt lat="48.79205" lon="2.11861">
        <ele>151</ele>
        <time>2021-05-14T12:26:23Z</time>
      </trkpt>
      <trkpt lat="48.79211" lon="2.11865">
        <ele>150</ele>
        <time>2021-05-14T12:26:46Z</time>
      </trkpt>
      <trkpt lat="48.79214" lon="2.11874">
        <ele>150</ele>
        <time>2021-05-14T12:26:50Z</time>
      </trkpt>
      <trkpt lat="48.79211" lon="2.119">
        <ele>151</ele>
        <time>2021-05-14T12:27:06Z</time>
      </trkpt>
      <trkpt lat="48.79211" lon="2.1191">
        <ele>150</ele>
        <time>2021-05-14T12:27:12Z</time>
      </trkpt>
      <trkpt lat="48.79214" lon="2.11921">
        <ele>151</ele>
        <time>2021-05-14T12:27:21Z</time>
      </trkpt>
      <trkpt lat="48.79216" lon="2.11931">
        <ele>151</ele>
        <time>2021-05-14T12:27:28Z</time>
      </trkpt>
      <trkpt lat="48.79214" lon="2.11942">
        <ele>151</ele>
        <time>2021-05-14T12:27:35Z</time>
      </trkpt>
      <trkpt lat="48.79216" lon="2.11975">
        <ele>149</ele>
        <time>2021-05-14T12:28:05Z</time>
      </trkpt>
      <trkpt lat="48.7922" lon="2.11995">
        <ele>148</ele>
        <time>2021-05-14T12:28:18Z</time>
      </trkpt>
      <trkpt lat="48.7922" lon="2.12007">
        <ele>147</ele>
        <time>2021-05-14T12:28:33Z</time>
      </trkpt>
      <trkpt lat="48.7921" lon="2.12086">
        <ele>143</ele>
        <time>2021-05-14T12:29:31Z</time>
      </trkpt>
      <trkpt lat="48.79205" lon="2.12106">
        <ele>141</ele>
        <time>2021-05-14T12:29:50Z</time>
      </trkpt>
      <trkpt lat="48.79204" lon="2.12116">
        <ele>141</ele>
        <time>2021-05-14T12:29:55Z</time>
      </trkpt>
      <trkpt lat="48.79203" lon="2.12127">
        <ele>142</ele>
        <time>2021-05-14T12:30:01Z</time>
      </trkpt>
      <trkpt lat="48.79201" lon="2.1214">
        <ele>143</ele>
        <time>2021-05-14T12:30:14Z</time>
      </trkpt>
      <trkpt lat="48.79196" lon="2.1215">
        <ele>145</ele>
        <time>2021-05-14T12:30:29Z</time>
      </trkpt>
      <trkpt lat="48.79188" lon="2.12153">
        <ele>146</ele>
        <time>2021-05-14T12:30:35Z</time>
      </trkpt>
      <trkpt lat="48.7917" lon="2.12201">
        <ele>149</ele>
        <time>2021-05-14T12:31:13Z</time>
      </trkpt>
      <trkpt lat="48.79158" lon="2.12216">
        <ele>149</ele>
        <time>2021-05-14T12:31:22Z</time>
      </trkpt>
      <trkpt lat="48.79123" lon="2.12243">
        <ele>154</ele>
        <time>2021-05-14T12:32:03Z</time>
      </trkpt>
      <trkpt lat="48.79118" lon="2.12251">
        <ele>155</ele>
        <time>2021-05-14T12:32:14Z</time>
      </trkpt>
      <trkpt lat="48.79115" lon="2.12272">
        <ele>157</ele>
        <time>2021-05-14T12:32:31Z</time>
      </trkpt>
      <trkpt lat="48.79109" lon="2.1229">
        <ele>159</ele>
        <time>2021-05-14T12:32:45Z</time>
      </trkpt>
      <trkpt lat="48.79107" lon="2.12301">
        <ele>159</ele>
        <time>2021-05-14T12:32:50Z</time>
      </trkpt>
      <trkpt lat="48.79097" lon="2.1233">
        <ele>161</ele>
        <time>2021-05-14T12:33:06Z</time>
      </trkpt>
      <trkpt lat="48.79097" lon="2.12339">
        <ele>162</ele>
        <time>2021-05-14T12:33:12Z</time>
      </trkpt>
      <trkpt lat="48.79095" lon="2.12348">
        <ele>163</ele>
        <time>2021-05-14T12:33:18Z</time>
      </trkpt>
      <trkpt lat="48.79095" lon="2.12361">
        <ele>163</ele>
        <time>2021-05-14T12:33:34Z</time>
      </trkpt>
      <trkpt lat="48.79092" lon="2.12377">
        <ele>164</ele>
        <time>2021-05-14T12:33:54Z</time>
      </trkpt>
      <trkpt lat="48.79092" lon="2.12392">
        <ele>165</ele>
        <time>2021-05-14T12:34:09Z</time>
      </trkpt>
      <trkpt lat="48.79088" lon="2.1239">
        <ele>165</ele>
        <time>2021-05-14T12:34:29Z</time>
      </trkpt>
      <trkpt lat="48.79078" lon="2.12387">
        <ele>166</ele>
        <time>2021-05-14T12:34:54Z</time>
      </trkpt>
      <trkpt lat="48.79056" lon="2.1239">
        <ele>167</ele>
        <time>2021-05-14T12:35:19Z</time>
      </trkpt>
      <trkpt lat="48.79028" lon="2.12413">
        <ele>167</ele>
        <time>2021-05-14T12:35:39Z</time>
      </trkpt>
      <trkpt lat="48.79004" lon="2.12445">
        <ele>168</ele>
        <time>2021-05-14T12:36:04Z</time>
      </trkpt>
      <trkpt lat="48.78988" lon="2.12457">
        <ele>169</ele>
        <time>2021-05-14T12:36:31Z</time>
      </trkpt>
      <trkpt lat="48.78963" lon="2.12494">
        <ele>169</ele>
        <time>2021-05-14T12:37:07Z</time>
      </trkpt>
      <trkpt lat="48.78943" lon="2.12501">
        <ele>170</ele>
        <time>2021-05-14T12:37:54Z</time>
      </trkpt>
      <trkpt lat="48.78916" lon="2.12537">
        <ele>171</ele>
        <time>2021-05-14T12:38:28Z</time>
      </trkpt>
      <trkpt lat="48.78897" lon="2.1257">
        <ele>171</ele>
        <time>2021-05-14T12:39:01Z</time>
      </trkpt>
      <trkpt lat="48.7888" lon="2.12558">
        <ele>172</ele>
        <time>2021-05-14T12:39:48Z</time>
      </trkpt>
      <trkpt lat="48.78877" lon="2.12556">
        <ele>172</ele>
        <time>2021-05-14T12:40:56Z</time>
      </trkpt>
      <trkpt lat="48.78878" lon="2.12547">
        <ele>172</ele>
        <time>2021-05-14T12:41:00Z</time>
      </trkpt>
      <trkpt lat="48.78877" lon="2.12535">
        <ele>172</ele>
        <time>2021-05-14T12:41:11Z</time>
      </trkpt>
      <trkpt lat="48.78871" lon="2.12533">
        <ele>173</ele>
        <time>2021-05-14T12:41:46Z</time>
      </trkpt>
      <trkpt lat="48.78868" lon="2.12527">
        <ele>173</ele>
        <time>2021-05-14T12:45:31Z</time>
      </trkpt>
      <trkpt lat="48.78863" lon="2.12535">
        <ele>173</ele>
        <time>2021-05-14T12:46:11Z</time>
      </trkpt>
      <trkpt lat="48.78856" lon="2.12535">
        <ele>173</ele>
        <time>2021-05-14T12:47:11Z</time>
      </trkpt>
      <trkpt lat="48.78847" lon="2.12538">
        <ele>173</ele>
        <time>2021-05-14T12:47:21Z</time>
      </trkpt>
      <trkpt lat="48.7884" lon="2.12539">
        <ele>173</ele>
        <time>2021-05-14T12:47:29Z</time>
      </trkpt>
      <trkpt lat="48.78824" lon="2.12542">
        <ele>173</ele>
        <time>2021-05-14T12:47:44Z</time>
      </trkpt>
      <trkpt lat="48.78819" lon="2.12542">
        <ele>173</ele>
        <time>2021-05-14T12:48:00Z</time>
      </trkpt>
      <trkpt lat="48.78792" lon="2.12548">
        <ele>174</ele>
        <time>2021-05-14T12:48:45Z</time>
      </trkpt>
      <trkpt lat="48.78763" lon="2.12541">
        <ele>174</ele>
        <time>2021-05-14T12:49:06Z</time>
      </trkpt>
      <trkpt lat="48.78763" lon="2.12588">
        <ele>172</ele>
        <time>2021-05-14T12:49:41Z</time>
      </trkpt>
      <trkpt lat="48.78766" lon="2.12597">
        <ele>171</ele>
        <time>2021-05-14T12:49:49Z</time>
      </trkpt>
      <trkpt lat="48.7877" lon="2.12651">
        <ele>161</ele>
        <time>2021-05-14T12:50:46Z</time>
      </trkpt>
      <trkpt lat="48.78769" lon="2.12726">
        <ele>157</ele>
        <time>2021-05-14T12:51:19Z</time>
      </trkpt>
      <trkpt lat="48.78768" lon="2.12746">
        <ele>154</ele>
        <time>2021-05-14T12:51:32Z</time>
      </trkpt>
      <trkpt lat="48.78773" lon="2.12769">
        <ele>153</ele>
        <time>2021-05-14T12:51:52Z</time>
      </trkpt>
      <trkpt lat="48.78778" lon="2.12814">
        <ele>153</ele>
        <time>2021-05-14T12:52:33Z</time>
      </trkpt>
      <trkpt lat="48.78776" lon="2.12866">
        <ele>152</ele>
        <time>2021-05-14T12:53:03Z</time>
      </trkpt>
      <trkpt lat="48.78778" lon="2.12907">
        <ele>152</ele>
        <time>2021-05-14T12:53:30Z</time>
      </trkpt>
      <trkpt lat="48.7879" lon="2.12967">
        <ele>154</ele>
        <time>2021-05-14T12:54:12Z</time>
      </trkpt>
      <trkpt lat="48.78784" lon="2.13068">
        <ele>156</ele>
        <time>2021-05-14T12:54:48Z</time>
      </trkpt>
      <trkpt lat="48.78782" lon="2.13198">
        <ele>153</ele>
        <time>2021-05-14T12:55:25Z</time>
      </trkpt>
      <trkpt lat="48.78783" lon="2.13267">
        <ele>153</ele>
        <time>2021-05-14T12:55:54Z</time>
      </trkpt>
      <trkpt lat="48.78778" lon="2.13278">
        <ele>153</ele>
        <time>2021-05-14T12:56:55Z</time>
      </trkpt>
      <trkpt lat="48.78777" lon="2.13287">
        <ele>152</ele>
        <time>2021-05-14T12:57:01Z</time>
      </trkpt>
      <trkpt lat="48.78771" lon="2.13293">
        <ele>151</ele>
        <time>2021-05-14T12:57:07Z</time>
      </trkpt>
      <trkpt lat="48.78767" lon="2.13302">
        <ele>151</ele>
        <time>2021-05-14T12:57:15Z</time>
      </trkpt>
      <trkpt lat="48.78752" lon="2.13298">
        <ele>150</ele>
        <time>2021-05-14T12:57:30Z</time>
      </trkpt>
      <trkpt lat="48.78739" lon="2.13301">
        <ele>150</ele>
        <time>2021-05-14T12:57:40Z</time>
      </trkpt>
      <trkpt lat="48.78734" lon="2.13301">
        <ele>149</ele>
        <time>2021-05-14T12:57:44Z</time>
      </trkpt>
      <trkpt lat="48.78728" lon="2.13305">
        <ele>149</ele>
        <time>2021-05-14T12:57:48Z</time>
      </trkpt>
      <trkpt lat="48.78722" lon="2.13305">
        <ele>149</ele>
        <time>2021-05-14T12:57:53Z</time>
      </trkpt>
      <trkpt lat="48.78694" lon="2.13296">
        <ele>148</ele>
        <time>2021-05-14T12:58:23Z</time>
      </trkpt>
      <trkpt lat="48.78678" lon="2.13291">
        <ele>149</ele>
        <time>2021-05-14T12:58:34Z</time>
      </trkpt>
      <trkpt lat="48.78648" lon="2.13291">
        <ele>148</ele>
        <time>2021-05-14T12:58:54Z</time>
      </trkpt>
      <trkpt lat="48.78635" lon="2.13279">
        <ele>148</ele>
        <time>2021-05-14T12:59:06Z</time>
      </trkpt>
      <trkpt lat="48.78637" lon="2.13258">
        <ele>148</ele>
        <time>2021-05-14T12:59:14Z</time>
      </trkpt>
      <trkpt lat="48.78622" lon="2.13239">
        <ele>150</ele>
        <time>2021-05-14T12:59:33Z</time>
      </trkpt>
      <trkpt lat="48.78589" lon="2.13215">
        <ele>152</ele>
        <time>2021-05-14T13:00:10Z</time>
      </trkpt>
      <trkpt lat="48.78571" lon="2.132">
        <ele>153</ele>
        <time>2021-05-14T13:00:26Z</time>
      </trkpt>
      <trkpt lat="48.78557" lon="2.13196">
        <ele>153</ele>
        <time>2021-05-14T13:00:36Z</time>
      </trkpt>
      <trkpt lat="48.78532" lon="2.13173">
        <ele>154</ele>
        <time>2021-05-14T13:00:53Z</time>
      </trkpt>
      <trkpt lat="48.78521" lon="2.13169">
        <ele>155</ele>
        <time>2021-05-14T13:01:03Z</time>
      </trkpt>
      <trkpt lat="48.78514" lon="2.13165">
        <ele>155</ele>
        <time>2021-05-14T13:01:07Z</time>
      </trkpt>
      <trkpt lat="48.7851" lon="2.13162">
        <ele>156</ele>
        <time>2021-05-14T13:01:11Z</time>
      </trkpt>
      <trkpt lat="48.78505" lon="2.1316">
        <ele>156</ele>
        <time>2021-05-14T13:01:17Z</time>
      </trkpt>
      <trkpt lat="48.78479" lon="2.13146">
        <ele>158</ele>
        <time>2021-05-14T13:01:37Z</time>
      </trkpt>
      <trkpt lat="48.78463" lon="2.13142">
        <ele>159</ele>
        <time>2021-05-14T13:01:59Z</time>
      </trkpt>
      <trkpt lat="48.78457" lon="2.13142">
        <ele>159</ele>
        <time>2021-05-14T13:02:04Z</time>
      </trkpt>
      <trkpt lat="48.78453" lon="2.13136">
        <ele>160</ele>
        <time>2021-05-14T13:02:09Z</time>
      </trkpt>
      <trkpt lat="48.78448" lon="2.13132">
        <ele>161</ele>
        <time>2021-05-14T13:02:14Z</time>
      </trkpt>
      <trkpt lat="48.78442" lon="2.1313">
        <ele>161</ele>
        <time>2021-05-14T13:02:19Z</time>
      </trkpt>
      <trkpt lat="48.78438" lon="2.13124">
        <ele>162</ele>
        <time>2021-05-14T13:02:25Z</time>
      </trkpt>
      <trkpt lat="48.78433" lon="2.13117">
        <ele>163</ele>
        <time>2021-05-14T13:02:36Z</time>
      </trkpt>
      <trkpt lat="48.78428" lon="2.13112">
        <ele>163</ele>
        <time>2021-05-14T13:02:42Z</time>
      </trkpt>
      <trkpt lat="48.78417" lon="2.13102">
        <ele>164</ele>
        <time>2021-05-14T13:02:52Z</time>
      </trkpt>
      <trkpt lat="48.784" lon="2.13087">
        <ele>165</ele>
        <time>2021-05-14T13:03:05Z</time>
      </trkpt>
      <trkpt lat="48.78389" lon="2.13074">
        <ele>164</ele>
        <time>2021-05-14T13:03:18Z</time>
      </trkpt>
      <trkpt lat="48.78381" lon="2.13063">
        <ele>165</ele>
        <time>2021-05-14T13:03:26Z</time>
      </trkpt>
      <trkpt lat="48.78375" lon="2.13056">
        <ele>166</ele>
        <time>2021-05-14T13:03:30Z</time>
      </trkpt>
      <trkpt lat="48.78353" lon="2.13039">
        <ele>165</ele>
        <time>2021-05-14T13:03:48Z</time>
      </trkpt>
      <trkpt lat="48.78342" lon="2.13029">
        <ele>164</ele>
        <time>2021-05-14T13:04:00Z</time>
      </trkpt>
      <trkpt lat="48.78336" lon="2.13021">
        <ele>164</ele>
        <time>2021-05-14T13:04:05Z</time>
      </trkpt>
      <trkpt lat="48.78316" lon="2.13015">
        <ele>162</ele>
        <time>2021-05-14T13:04:25Z</time>
      </trkpt>
      <trkpt lat="48.78276" lon="2.13019">
        <ele>158</ele>
        <time>2021-05-14T13:05:01Z</time>
      </trkpt>
      <trkpt lat="48.78259" lon="2.13014">
        <ele>157</ele>
        <time>2021-05-14T13:05:11Z</time>
      </trkpt>
      <trkpt lat="48.78248" lon="2.1299">
        <ele>156</ele>
        <time>2021-05-14T13:05:17Z</time>
      </trkpt>
      <trkpt lat="48.78242" lon="2.12993">
        <ele>155</ele>
        <time>2021-05-14T13:05:25Z</time>
      </trkpt>
      <trkpt lat="48.78237" lon="2.13002">
        <ele>153</ele>
        <time>2021-05-14T13:05:33Z</time>
      </trkpt>
      <trkpt lat="48.78232" lon="2.13005">
        <ele>151</ele>
        <time>2021-05-14T13:05:39Z</time>
      </trkpt>
      <trkpt lat="48.78218" lon="2.12999">
        <ele>149</ele>
        <time>2021-05-14T13:05:53Z</time>
      </trkpt>
      <trkpt lat="48.78214" lon="2.13">
        <ele>150</ele>
        <time>2021-05-14T13:07:09Z</time>
      </trkpt>
      <trkpt lat="48.78206" lon="2.13004">
        <ele>148</ele>
        <time>2021-05-14T13:07:30Z</time>
      </trkpt>
      <trkpt lat="48.78198" lon="2.13037">
        <ele>143</ele>
        <time>2021-05-14T13:07:53Z</time>
      </trkpt>
      <trkpt lat="48.78193" lon="2.13055">
        <ele>141</ele>
        <time>2021-05-14T13:08:05Z</time>
      </trkpt>
      <trkpt lat="48.78189" lon="2.13073">
        <ele>139</ele>
        <time>2021-05-14T13:08:16Z</time>
      </trkpt>
      <trkpt lat="48.78183" lon="2.13073">
        <ele>139</ele>
        <time>2021-05-14T13:08:21Z</time>
      </trkpt>
      <trkpt lat="48.78177" lon="2.13072">
        <ele>138</ele>
        <time>2021-05-14T13:08:25Z</time>
      </trkpt>
      <trkpt lat="48.78143" lon="2.13045">
        <ele>138</ele>
        <time>2021-05-14T13:08:54Z</time>
      </trkpt>
      <trkpt lat="48.78136" lon="2.13044">
        <ele>138</ele>
        <time>2021-05-14T13:08:58Z</time>
      </trkpt>
      <trkpt lat="48.78131" lon="2.13039">
        <ele>138</ele>
        <time>2021-05-14T13:09:02Z</time>
      </trkpt>
      <trkpt lat="48.78125" lon="2.13035">
        <ele>137</ele>
        <time>2021-05-14T13:09:08Z</time>
      </trkpt>
      <trkpt lat="48.78105" lon="2.13026">
        <ele>137</ele>
        <time>2021-05-14T13:09:25Z</time>
      </trkpt>
      <trkpt lat="48.78098" lon="2.13018">
        <ele>136</ele>
        <time>2021-05-14T13:09:32Z</time>
      </trkpt>
      <trkpt lat="48.78091" lon="2.13016">
        <ele>136</ele>
        <time>2021-05-14T13:09:36Z</time>
      </trkpt>
      <trkpt lat="48.78085" lon="2.13018">
        <ele>136</ele>
        <time>2021-05-14T13:09:41Z</time>
      </trkpt>
      <trkpt lat="48.78079" lon="2.13016">
        <ele>136</ele>
        <time>2021-05-14T13:09:45Z</time>
      </trkpt>
      <trkpt lat="48.78036" lon="2.13015">
        <ele>135</ele>
        <time>2021-05-14T13:10:17Z</time>
      </trkpt>
      <trkpt lat="48.78031" lon="2.1301">
        <ele>134</ele>
        <time>2021-05-14T13:10:23Z</time>
      </trkpt>
      <trkpt lat="48.78028" lon="2.13003">
        <ele>134</ele>
        <time>2021-05-14T13:10:27Z</time>
      </trkpt>
      <trkpt lat="48.78014" lon="2.12968">
        <ele>130</ele>
        <time>2021-05-14T13:10:51Z</time>
      </trkpt>
      <trkpt lat="48.78005" lon="2.12959">
        <ele>129</ele>
        <time>2021-05-14T13:10:57Z</time>
      </trkpt>
      <trkpt lat="48.77965" lon="2.12929">
        <ele>125</ele>
        <time>2021-05-14T13:11:28Z</time>
      </trkpt>
      <trkpt lat="48.77961" lon="2.12924">
        <ele>124</ele>
        <time>2021-05-14T13:11:32Z</time>
      </trkpt>
      <trkpt lat="48.77934" lon="2.12911">
        <ele>122</ele>
        <time>2021-05-14T13:11:54Z</time>
      </trkpt>
      <trkpt lat="48.77916" lon="2.12915">
        <ele>120</ele>
        <time>2021-05-14T13:12:06Z</time>
      </trkpt>
      <trkpt lat="48.77904" lon="2.12914">
        <ele>119</ele>
        <time>2021-05-14T13:12:15Z</time>
      </trkpt>
      <trkpt lat="48.77886" lon="2.12918">
        <ele>118</ele>
        <time>2021-05-14T13:12:29Z</time>
      </trkpt>
      <trkpt lat="48.7788" lon="2.12922">
        <ele>118</ele>
        <time>2021-05-14T13:12:33Z</time>
      </trkpt>
      <trkpt lat="48.77873" lon="2.12923">
        <ele>118</ele>
        <time>2021-05-14T13:12:40Z</time>
      </trkpt>
      <trkpt lat="48.77861" lon="2.12917">
        <ele>117</ele>
        <time>2021-05-14T13:12:51Z</time>
      </trkpt>
      <trkpt lat="48.77855" lon="2.1291">
        <ele>117</ele>
        <time>2021-05-14T13:13:03Z</time>
      </trkpt>
      <trkpt lat="48.77849" lon="2.12906">
        <ele>116</ele>
        <time>2021-05-14T13:13:13Z</time>
      </trkpt>
      <trkpt lat="48.77845" lon="2.12893">
        <ele>115</ele>
        <time>2021-05-14T13:13:28Z</time>
      </trkpt>
      <trkpt lat="48.77837" lon="2.12888">
        <ele>115</ele>
        <time>2021-05-14T13:13:41Z</time>
      </trkpt>
      <trkpt lat="48.77826" lon="2.12889">
        <ele>114</ele>
        <time>2021-05-14T13:13:53Z</time>
      </trkpt>
      <trkpt lat="48.77769" lon="2.1286">
        <ele>113</ele>
        <time>2021-05-14T13:14:23Z</time>
      </trkpt>
      <trkpt lat="48.77708" lon="2.12823">
        <ele>111</ele>
        <time>2021-05-14T13:14:59Z</time>
      </trkpt>
      <trkpt lat="48.77692" lon="2.12823">
        <ele>110</ele>
        <time>2021-05-14T13:15:11Z</time>
      </trkpt>
      <trkpt lat="48.77663" lon="2.12815">
        <ele>109</ele>
        <time>2021-05-14T13:15:26Z</time>
      </trkpt>
      <trkpt lat="48.77637" lon="2.12786">
        <ele>109</ele>
        <time>2021-05-14T13:16:08Z</time>
      </trkpt>
      <trkpt lat="48.77615" lon="2.12765">
        <ele>108</ele>
        <time>2021-05-14T13:16:25Z</time>
      </trkpt>
      <trkpt lat="48.77609" lon="2.12757">
        <ele>108</ele>
        <time>2021-05-14T13:16:34Z</time>
      </trkpt>
      <trkpt lat="48.77606" lon="2.12746">
        <ele>107</ele>
        <time>2021-05-14T13:16:38Z</time>
      </trkpt>
      <trkpt lat="48.77592" lon="2.12726">
        <ele>107</ele>
        <time>2021-05-14T13:16:53Z</time>
      </trkpt>
      <trkpt lat="48.77587" lon="2.12711">
        <ele>106</ele>
        <time>2021-05-14T13:17:07Z</time>
      </trkpt>
      <trkpt lat="48.77579" lon="2.12707">
        <ele>107</ele>
        <time>2021-05-14T13:17:14Z</time>
      </trkpt>
      <trkpt lat="48.77572" lon="2.12704">
        <ele>106</ele>
        <time>2021-05-14T13:17:20Z</time>
      </trkpt>
      <trkpt lat="48.7756" lon="2.12688">
        <ele>106</ele>
        <time>2021-05-14T13:17:30Z</time>
      </trkpt>
      <trkpt lat="48.77554" lon="2.12677">
        <ele>106</ele>
        <time>2021-05-14T13:17:35Z</time>
      </trkpt>
      <trkpt lat="48.7754" lon="2.12662">
        <ele>106</ele>
        <time>2021-05-14T13:17:47Z</time>
      </trkpt>
      <trkpt lat="48.77535" lon="2.12633">
        <ele>106</ele>
        <time>2021-05-14T13:18:07Z</time>
      </trkpt>
      <trkpt lat="48.77521" lon="2.12591">
        <ele>106</ele>
        <time>2021-05-14T13:18:30Z</time>
      </trkpt>
      <trkpt lat="48.77519" lon="2.12579">
        <ele>106</ele>
        <time>2021-05-14T13:18:37Z</time>
      </trkpt>
      <trkpt lat="48.77511" lon="2.12572">
        <ele>106</ele>
        <time>2021-05-14T13:18:47Z</time>
      </trkpt>
      <trkpt lat="48.77505" lon="2.12548">
        <ele>106</ele>
        <time>2021-05-14T13:19:01Z</time>
      </trkpt>
      <trkpt lat="48.77505" lon="2.12535">
        <ele>106</ele>
        <time>2021-05-14T13:19:06Z</time>
      </trkpt>
      <trkpt lat="48.77511" lon="2.125">
        <ele>106</ele>
        <time>2021-05-14T13:19:20Z</time>
      </trkpt>
    </trkseg>
  </trk>
</gpx>